KLM48 KORD-EHAM
Flight info
| Callsign | KLM48 |
|---|---|
| Flight time | 7h 46m |
| Altitude | 39000 |
| Route | EBAKE DCT WISMO DCT POSTS DCT PADDE DCT SVM Q907 MIILS N513A ALLRY/M083F400 NATT SOVED/N0476F410 DCT INKUR DCT BAL DCT LIFFY UL975 WAL M16 DOLAS L603 LAMSO |
| Aircraft | B772/H-SDE2E3FGHIJ3J5P2RWXYZ/LB1D1 |
Departure
| Time | 2026-05-03 23:31 |
|---|---|
| Airport | Chicago O'Hare International Airport (KORD) |
Arrival
| Time | 2026-05-04 07:17 |
|---|---|
| Airport | Amsterdam Airport Schiphol (EHAM) |
| Time | Latitude | Longitude | Altitude | Speed | Heading |
|---|---|---|---|---|---|
| 2026-05-03 23:13 | 41.97347 | -87.88568 | 674 ft | 0 kts | 0° |
| 2026-05-03 23:18 | 41.97343 | -87.88568 | 674 ft | 3 kts | 0° |
| 2026-05-03 23:18 | 41.97316 | -87.88568 | 673 ft | 4 kts | 360° |
| 2026-05-03 23:19 | 41.97293 | -87.88568 | 671 ft | 4 kts | 7° |
| 2026-05-03 23:19 | 41.97273 | -87.88578 | 673 ft | 4 kts | 65° |
| 2026-05-03 23:19 | 41.97270 | -87.88610 | 673 ft | 4 kts | 91° |
| 2026-05-03 23:19 | 41.97270 | -87.88625 | 673 ft | 1 kts | 90° |
| 2026-05-03 23:20 | 41.97270 | -87.88627 | 673 ft | 0 kts | 90° |
| 2026-05-03 23:24 | 41.97270 | -87.88617 | 673 ft | 6 kts | 90° |
| 2026-05-03 23:25 | 41.97270 | -87.88535 | 673 ft | 7 kts | 90° |
| 2026-05-03 23:25 | 41.97270 | -87.88472 | 673 ft | 7 kts | 90° |
| 2026-05-03 23:25 | 41.97270 | -87.88409 | 673 ft | 7 kts | 90° |
| 2026-05-03 23:25 | 41.97241 | -87.88367 | 674 ft | 7 kts | 161° |
| 2026-05-03 23:26 | 41.97198 | -87.88381 | 674 ft | 7 kts | 231° |
| 2026-05-03 23:26 | 41.97172 | -87.88434 | 673 ft | 7 kts | 215° |
| 2026-05-03 23:26 | 41.97125 | -87.88444 | 673 ft | 7 kts | 181° |
| 2026-05-03 23:26 | 41.97079 | -87.88445 | 673 ft | 5 kts | 181° |
| 2026-05-03 23:27 | 41.97046 | -87.88429 | 673 ft | 5 kts | 149° |
| 2026-05-03 23:27 | 41.97013 | -87.88408 | 673 ft | 5 kts | 169° |
| 2026-05-03 23:27 | 41.97011 | -87.88408 | 673 ft | 0 kts | 177° |
| 2026-05-03 23:28 | 41.97009 | -87.88408 | 673 ft | 0 kts | 177° |
| 2026-05-03 23:28 | 41.96988 | -87.88406 | 673 ft | 6 kts | 177° |
| 2026-05-03 23:29 | 41.96945 | -87.88403 | 672 ft | 6 kts | 179° |
| 2026-05-03 23:29 | 41.96915 | -87.88442 | 672 ft | 6 kts | 244° |
| 2026-05-03 23:29 | 41.96908 | -87.88498 | 672 ft | 6 kts | 266° |
| 2026-05-03 23:29 | 41.96908 | -87.88507 | 672 ft | 0 kts | 269° |
| 2026-05-03 23:30 | 41.96908 | -87.88531 | 672 ft | 17 kts | 269° |
| 2026-05-03 23:30 | 41.96907 | -87.89050 | 672 ft | 93 kts | 269° |
| 2026-05-03 23:30 | 41.96895 | -87.90229 | 674 ft | 157 kts | 269° |
| 2026-05-03 23:30 | 41.96925 | -87.91876 | 1017 ft | 180 kts | 264° |
| 2026-05-03 23:31 | 41.96955 | -87.93501 | 2152 ft | 170 kts | 269° |
| 2026-05-03 23:31 | 41.97000 | -87.95094 | 2993 ft | 170 kts | 268° |
| 2026-05-03 23:31 | 41.97049 | -87.96681 | 3751 ft | 171 kts | 269° |
| 2026-05-03 23:31 | 41.97103 | -87.98330 | 4171 ft | 187 kts | 272° |
| 2026-05-03 23:32 | 41.97581 | -88.00037 | 4339 ft | 218 kts | 304° |
| 2026-05-03 23:32 | 41.98844 | -88.01300 | 4591 ft | 251 kts | 331° |
| 2026-05-03 23:32 | 42.00647 | -88.01559 | 5072 ft | 278 kts | 7° |
| 2026-05-03 23:32 | 42.02424 | -88.00421 | 5683 ft | 288 kts | 28° |
| 2026-05-03 23:33 | 42.04117 | -87.98905 | 6281 ft | 295 kts | 31° |
| 2026-05-03 23:33 | 42.05781 | -87.97300 | 7067 ft | 293 kts | 32° |
| 2026-05-03 23:33 | 42.07410 | -87.95686 | 7882 ft | 289 kts | 32° |
| 2026-05-03 23:33 | 42.09025 | -87.94075 | 8589 ft | 290 kts | 32° |
| 2026-05-03 23:34 | 42.10640 | -87.92453 | 9265 ft | 290 kts | 32° |
| 2026-05-03 23:34 | 42.12253 | -87.90822 | 9945 ft | 289 kts | 33° |
| 2026-05-03 23:34 | 42.13672 | -87.88849 | 10252 ft | 306 kts | 50° |
| 2026-05-03 23:34 | 42.14678 | -87.86225 | 10364 ft | 330 kts | 69° |
| 2026-05-03 23:35 | 42.15242 | -87.83121 | 10603 ft | 348 kts | 75° |
| 2026-05-03 23:35 | 42.15570 | -87.80983 | 10926 ft | 356 kts | 75° |
| 2026-05-03 23:35 | 42.16066 | -87.77681 | 11566 ft | 363 kts | 75° |
| 2026-05-03 23:35 | 42.16586 | -87.74295 | 12438 ft | 365 kts | 75° |
| 2026-05-03 23:36 | 42.17118 | -87.70939 | 13379 ft | 367 kts | 74° |
| 2026-05-03 23:36 | 42.17662 | -87.67602 | 14158 ft | 372 kts | 74° |
| 2026-05-03 23:36 | 42.18234 | -87.64165 | 14807 ft | 379 kts | 74° |
| 2026-05-03 23:36 | 42.18820 | -87.60678 | 15548 ft | 383 kts | 73° |
| 2026-05-03 23:37 | 42.19416 | -87.57160 | 16309 ft | 387 kts | 73° |
| 2026-05-03 23:37 | 42.20016 | -87.53605 | 17077 ft | 391 kts | 73° |
| 2026-05-03 23:37 | 42.20622 | -87.50010 | 17796 ft | 395 kts | 73° |
| 2026-05-03 23:37 | 42.21235 | -87.46372 | 18449 ft | 400 kts | 73° |
| 2026-05-03 23:38 | 42.21853 | -87.42696 | 19068 ft | 404 kts | 73° |
| 2026-05-03 23:38 | 42.22475 | -87.38987 | 19687 ft | 407 kts | 73° |
| 2026-05-03 23:38 | 42.23102 | -87.35244 | 20299 ft | 410 kts | 73° |
| 2026-05-03 23:38 | 42.23732 | -87.31471 | 20915 ft | 414 kts | 73° |
| 2026-05-03 23:39 | 42.24366 | -87.27668 | 21522 ft | 417 kts | 73° |
| 2026-05-03 23:39 | 42.25004 | -87.23834 | 22103 ft | 421 kts | 73° |
| 2026-05-03 23:39 | 42.25646 | -87.19964 | 22676 ft | 425 kts | 73° |
| 2026-05-03 23:39 | 42.26294 | -87.16052 | 23253 ft | 428 kts | 73° |
| 2026-05-03 23:40 | 42.26944 | -87.12117 | 23744 ft | 432 kts | 73° |
| 2026-05-03 23:40 | 42.27594 | -87.08143 | 24219 ft | 436 kts | 75° |
| 2026-05-03 23:40 | 42.28062 | -87.04073 | 24666 ft | 442 kts | 82° |
| 2026-05-03 23:40 | 42.28261 | -86.99940 | 25118 ft | 447 kts | 84° |
| 2026-05-03 23:41 | 42.28413 | -86.95849 | 25549 ft | 451 kts | 84° |
| 2026-05-03 23:41 | 42.28561 | -86.91602 | 26036 ft | 454 kts | 84° |
| 2026-05-03 23:41 | 42.28713 | -86.87324 | 26524 ft | 457 kts | 84° |
| 2026-05-03 23:41 | 42.28872 | -86.83022 | 26997 ft | 461 kts | 84° |
| 2026-05-03 23:42 | 42.29039 | -86.78683 | 27464 ft | 464 kts | 84° |
| 2026-05-03 23:42 | 42.29211 | -86.74308 | 27924 ft | 468 kts | 84° |
| 2026-05-03 23:42 | 42.29385 | -86.69907 | 28372 ft | 472 kts | 84° |
| 2026-05-03 23:42 | 42.29560 | -86.65464 | 28823 ft | 475 kts | 84° |
| 2026-05-03 23:43 | 42.29734 | -86.60994 | 29278 ft | 479 kts | 84° |
| 2026-05-03 23:43 | 42.29907 | -86.56485 | 29718 ft | 482 kts | 84° |
| 2026-05-03 23:43 | 42.30079 | -86.51954 | 30185 ft | 484 kts | 84° |
| 2026-05-03 23:43 | 42.30249 | -86.47409 | 30587 ft | 486 kts | 84° |
| 2026-05-03 23:44 | 42.30416 | -86.42897 | 30932 ft | 489 kts | 84° |
| 2026-05-03 23:44 | 42.30586 | -86.38290 | 31258 ft | 493 kts | 84° |
| 2026-05-03 23:44 | 42.30757 | -86.33591 | 31600 ft | 496 kts | 84° |
| 2026-05-03 23:44 | 42.30924 | -86.28925 | 31939 ft | 499 kts | 84° |
| 2026-05-03 23:45 | 42.31090 | -86.24233 | 32288 ft | 501 kts | 84° |
| 2026-05-03 23:45 | 42.31256 | -86.19515 | 32612 ft | 504 kts | 84° |
| 2026-05-03 23:45 | 42.31421 | -86.14775 | 32968 ft | 506 kts | 84° |
| 2026-05-03 23:45 | 42.31581 | -86.10016 | 33256 ft | 509 kts | 85° |
| 2026-05-03 23:46 | 42.31617 | -86.05219 | 33538 ft | 512 kts | 87° |
| 2026-05-03 23:46 | 42.31572 | -86.00395 | 33776 ft | 515 kts | 88° |
| 2026-05-03 23:46 | 42.31501 | -85.95715 | 34008 ft | 517 kts | 88° |
| 2026-05-03 23:46 | 42.31420 | -85.90856 | 34299 ft | 518 kts | 88° |
| 2026-05-03 23:47 | 42.31341 | -85.85996 | 34617 ft | 517 kts | 88° |
| 2026-05-03 23:47 | 42.31268 | -85.81138 | 34918 ft | 517 kts | 88° |
| 2026-05-03 23:47 | 42.31199 | -85.76278 | 35189 ft | 518 kts | 88° |
| 2026-05-03 23:47 | 42.31132 | -85.71408 | 35481 ft | 518 kts | 88° |
| 2026-05-03 23:48 | 42.31065 | -85.66543 | 35761 ft | 518 kts | 88° |
| 2026-05-03 23:48 | 42.30997 | -85.61668 | 36054 ft | 519 kts | 88° |
| 2026-05-03 23:48 | 42.30927 | -85.56796 | 36323 ft | 519 kts | 88° |
| 2026-05-03 23:48 | 42.30853 | -85.51916 | 36596 ft | 519 kts | 89° |
| 2026-05-03 23:49 | 42.30778 | -85.47109 | 36834 ft | 520 kts | 89° |
| 2026-05-03 23:49 | 42.30700 | -85.42225 | 37119 ft | 520 kts | 89° |
| 2026-05-03 23:49 | 42.30619 | -85.37334 | 37281 ft | 522 kts | 89° |
| 2026-05-03 23:49 | 42.30536 | -85.32421 | 37501 ft | 523 kts | 89° |
| 2026-05-03 23:50 | 42.30450 | -85.27504 | 37777 ft | 523 kts | 89° |
| 2026-05-03 23:50 | 42.30363 | -85.22600 | 38038 ft | 523 kts | 89° |
| 2026-05-03 23:50 | 42.30273 | -85.17690 | 38269 ft | 523 kts | 89° |
| 2026-05-03 23:50 | 42.30182 | -85.12780 | 38485 ft | 524 kts | 89° |
| 2026-05-03 23:51 | 42.30089 | -85.07857 | 38668 ft | 524 kts | 89° |
| 2026-05-03 23:51 | 42.29994 | -85.02939 | 38824 ft | 525 kts | 89° |
| 2026-05-03 23:51 | 42.29777 | -84.93214 | 38885 ft | 530 kts | 90° |
| 2026-05-03 23:52 | 42.29531 | -84.83290 | 38878 ft | 525 kts | 90° |
| 2026-05-03 23:52 | 42.29284 | -84.73489 | 38889 ft | 521 kts | 90° |
| 2026-05-03 23:53 | 42.29036 | -84.63716 | 38918 ft | 520 kts | 90° |
| 2026-05-03 23:53 | 42.28779 | -84.53963 | 38920 ft | 520 kts | 90° |
| 2026-05-03 23:54 | 42.29005 | -84.44306 | 38916 ft | 517 kts | 80° |
| 2026-05-03 23:54 | 42.30312 | -84.34719 | 38914 ft | 516 kts | 75° |
| 2026-05-03 23:55 | 42.31732 | -84.25273 | 38908 ft | 517 kts | 76° |
| 2026-05-03 23:55 | 42.33114 | -84.15723 | 38901 ft | 519 kts | 76° |
| 2026-05-03 23:56 | 42.34461 | -84.06133 | 38897 ft | 520 kts | 77° |
| 2026-05-03 23:56 | 42.35770 | -83.96722 | 38900 ft | 521 kts | 77° |
| 2026-05-03 23:57 | 42.37105 | -83.87096 | 38897 ft | 521 kts | 77° |
| 2026-05-03 23:57 | 42.38433 | -83.77462 | 38893 ft | 521 kts | 77° |
| 2026-05-03 23:58 | 42.39754 | -83.67827 | 38891 ft | 521 kts | 77° |
| 2026-05-03 23:58 | 42.41229 | -83.58254 | 38893 ft | 518 kts | 71° |
| 2026-05-03 23:59 | 42.43622 | -83.49115 | 38915 ft | 514 kts | 65° |
| 2026-05-03 23:59 | 42.46192 | -83.40071 | 38883 ft | 515 kts | 66° |
| 2026-05-04 00:00 | 42.48723 | -83.31001 | 38871 ft | 515 kts | 66° |
| 2026-05-04 00:00 | 42.51194 | -83.21975 | 38871 ft | 514 kts | 66° |
| 2026-05-04 00:01 | 42.53673 | -83.12852 | 38874 ft | 514 kts | 66° |
| 2026-05-04 00:01 | 42.56142 | -83.03741 | 38869 ft | 515 kts | 66° |
| 2026-05-04 00:02 | 42.58560 | -82.94798 | 38834 ft | 515 kts | 66° |
| 2026-05-04 00:02 | 42.61019 | -82.85666 | 38826 ft | 515 kts | 67° |
| 2026-05-04 00:03 | 42.63476 | -82.76511 | 38828 ft | 516 kts | 67° |
| 2026-05-04 00:03 | 42.65925 | -82.67345 | 38830 ft | 516 kts | 67° |
| 2026-05-04 00:04 | 42.68368 | -82.58171 | 38828 ft | 517 kts | 67° |
| 2026-05-04 00:04 | 42.70804 | -82.48991 | 38851 ft | 517 kts | 67° |
| 2026-05-04 00:05 | 42.73235 | -82.39782 | 38865 ft | 517 kts | 67° |
| 2026-05-04 00:05 | 42.75639 | -82.30627 | 38864 ft | 518 kts | 68° |
| 2026-05-04 00:06 | 42.78054 | -82.21396 | 38854 ft | 518 kts | 68° |
| 2026-05-04 00:06 | 42.80462 | -82.12158 | 38851 ft | 517 kts | 68° |
| 2026-05-04 00:07 | 42.82860 | -82.02924 | 38853 ft | 517 kts | 68° |
| 2026-05-04 00:07 | 42.85202 | -81.93869 | 38851 ft | 516 kts | 68° |
| 2026-05-04 00:08 | 42.87580 | -81.84641 | 38853 ft | 516 kts | 68° |
| 2026-05-04 00:08 | 42.89951 | -81.75407 | 38851 ft | 516 kts | 68° |
| 2026-05-04 00:09 | 42.92313 | -81.66168 | 38852 ft | 515 kts | 68° |
| 2026-05-04 00:09 | 42.94665 | -81.56933 | 38862 ft | 516 kts | 68° |
| 2026-05-04 00:10 | 42.97013 | -81.47679 | 38859 ft | 516 kts | 68° |
| 2026-05-04 00:10 | 42.99353 | -81.38420 | 38858 ft | 516 kts | 68° |
| 2026-05-04 00:11 | 43.01681 | -81.29168 | 38863 ft | 516 kts | 68° |
| 2026-05-04 00:11 | 43.04008 | -81.19887 | 38863 ft | 516 kts | 68° |
| 2026-05-04 00:12 | 43.06340 | -81.10593 | 38861 ft | 516 kts | 67° |
| 2026-05-04 00:12 | 43.09213 | -81.01627 | 38868 ft | 514 kts | 61° |
| 2026-05-04 00:13 | 43.12273 | -80.92967 | 38860 ft | 515 kts | 61° |
| 2026-05-04 00:13 | 43.15377 | -80.84130 | 38859 ft | 516 kts | 61° |
| 2026-05-04 00:14 | 43.18448 | -80.75241 | 38864 ft | 516 kts | 62° |
| 2026-05-04 00:14 | 43.21500 | -80.66329 | 38864 ft | 517 kts | 62° |
| 2026-05-04 00:15 | 43.24547 | -80.57400 | 38873 ft | 517 kts | 62° |
| 2026-05-04 00:15 | 43.27592 | -80.48455 | 38856 ft | 518 kts | 62° |
| 2026-05-04 00:16 | 43.30614 | -80.39553 | 38841 ft | 518 kts | 62° |
| 2026-05-04 00:16 | 43.33668 | -80.30527 | 38839 ft | 517 kts | 62° |
| 2026-05-04 00:17 | 43.36671 | -80.21621 | 38836 ft | 517 kts | 62° |
| 2026-05-04 00:17 | 43.39687 | -80.12650 | 38842 ft | 517 kts | 62° |
| 2026-05-04 00:18 | 43.42692 | -80.03678 | 38858 ft | 517 kts | 62° |
| 2026-05-04 00:18 | 43.45640 | -79.94848 | 38850 ft | 516 kts | 63° |
| 2026-05-04 00:19 | 43.48627 | -79.85874 | 38861 ft | 515 kts | 63° |
| 2026-05-04 00:19 | 43.51603 | -79.76901 | 38851 ft | 515 kts | 63° |
| 2026-05-04 00:20 | 43.54573 | -79.67915 | 38855 ft | 515 kts | 63° |
| 2026-05-04 00:20 | 43.57535 | -79.58926 | 38857 ft | 515 kts | 63° |
| 2026-05-04 00:21 | 43.60489 | -79.49928 | 38853 ft | 514 kts | 63° |
| 2026-05-04 00:21 | 43.63431 | -79.40940 | 38861 ft | 514 kts | 63° |
| 2026-05-04 00:22 | 43.66353 | -79.31932 | 38856 ft | 514 kts | 64° |
| 2026-05-04 00:22 | 43.68681 | -79.24381 | 38856 ft | 514 kts | 65° |
| 2026-05-04 00:23 | 43.71432 | -79.15255 | 38867 ft | 514 kts | 65° |
| 2026-05-04 00:23 | 43.74145 | -79.06264 | 38853 ft | 514 kts | 65° |
| 2026-05-04 00:24 | 43.76897 | -78.97171 | 38846 ft | 514 kts | 65° |
| 2026-05-04 00:24 | 43.79659 | -78.88034 | 38846 ft | 514 kts | 65° |
| 2026-05-04 00:25 | 43.82410 | -78.78896 | 38846 ft | 514 kts | 65° |
| 2026-05-04 00:25 | 43.85155 | -78.69742 | 38860 ft | 515 kts | 65° |
| 2026-05-04 00:26 | 43.87893 | -78.60576 | 38872 ft | 515 kts | 65° |
| 2026-05-04 00:26 | 43.90628 | -78.51391 | 38857 ft | 515 kts | 65° |
| 2026-05-04 00:27 | 43.93352 | -78.42205 | 38853 ft | 515 kts | 65° |
| 2026-05-04 00:27 | 43.96071 | -78.33005 | 38850 ft | 515 kts | 65° |
| 2026-05-04 00:28 | 43.98784 | -78.23792 | 38850 ft | 515 kts | 66° |
| 2026-05-04 00:28 | 44.01483 | -78.14594 | 38861 ft | 515 kts | 66° |
| 2026-05-04 00:29 | 44.04180 | -78.05367 | 38852 ft | 515 kts | 66° |
| 2026-05-04 00:29 | 44.06826 | -77.96283 | 38854 ft | 515 kts | 66° |
| 2026-05-04 00:30 | 44.09504 | -77.87055 | 38861 ft | 514 kts | 66° |
| 2026-05-04 00:30 | 44.12155 | -77.77887 | 38868 ft | 514 kts | 66° |
| 2026-05-04 00:31 | 44.14835 | -77.68583 | 38871 ft | 514 kts | 66° |
| 2026-05-04 00:31 | 44.17490 | -77.59333 | 38868 ft | 514 kts | 66° |
| 2026-05-04 00:32 | 44.20221 | -77.50205 | 38870 ft | 513 kts | 62° |
| 2026-05-04 00:32 | 44.23808 | -77.41665 | 38871 ft | 510 kts | 55° |
| 2026-05-04 00:33 | 44.29544 | -77.29178 | 38883 ft | 510 kts | 55° |
| 2026-05-04 00:34 | 44.33329 | -77.20800 | 38865 ft | 511 kts | 56° |
| 2026-05-04 00:34 | 44.37092 | -77.12378 | 38862 ft | 511 kts | 56° |
| 2026-05-04 00:35 | 44.40843 | -77.03945 | 38867 ft | 511 kts | 56° |
| 2026-05-04 00:35 | 44.44523 | -76.95654 | 38864 ft | 511 kts | 56° |
| 2026-05-04 00:36 | 44.48268 | -76.87199 | 38864 ft | 511 kts | 56° |
| 2026-05-04 00:36 | 44.52005 | -76.78735 | 38860 ft | 511 kts | 56° |
| 2026-05-04 00:37 | 44.55735 | -76.70263 | 38852 ft | 511 kts | 57° |
| 2026-05-04 00:37 | 44.59459 | -76.61779 | 38857 ft | 511 kts | 57° |
| 2026-05-04 00:38 | 44.63176 | -76.53287 | 38859 ft | 510 kts | 57° |
| 2026-05-04 00:38 | 44.66887 | -76.44780 | 38844 ft | 510 kts | 57° |
| 2026-05-04 00:39 | 44.70586 | -76.36277 | 38841 ft | 510 kts | 57° |
| 2026-05-04 00:39 | 44.74279 | -76.27765 | 38837 ft | 510 kts | 57° |
| 2026-05-04 00:40 | 44.77673 | -76.19011 | 38830 ft | 510 kts | 66° |
| 2026-05-04 00:40 | 44.80148 | -76.09660 | 38837 ft | 510 kts | 70° |
| 2026-05-04 00:41 | 44.82497 | -76.00302 | 38832 ft | 510 kts | 70° |
| 2026-05-04 00:41 | 44.84849 | -75.91052 | 38826 ft | 510 kts | 70° |
| 2026-05-04 00:42 | 44.87283 | -75.81581 | 38821 ft | 511 kts | 70° |
| 2026-05-04 00:42 | 44.89641 | -75.72399 | 38822 ft | 511 kts | 70° |
| 2026-05-04 00:43 | 44.92052 | -75.62967 | 38815 ft | 511 kts | 70° |
| 2026-05-04 00:43 | 44.94454 | -75.53518 | 38813 ft | 512 kts | 70° |
| 2026-05-04 00:44 | 44.96851 | -75.44050 | 38820 ft | 512 kts | 70° |
| 2026-05-04 00:44 | 44.99240 | -75.34578 | 38815 ft | 512 kts | 70° |
| 2026-05-04 00:45 | 45.01603 | -75.25166 | 38829 ft | 512 kts | 70° |
| 2026-05-04 00:45 | 45.03976 | -75.15680 | 38814 ft | 512 kts | 70° |
| 2026-05-04 00:46 | 45.06343 | -75.06177 | 38819 ft | 512 kts | 70° |
| 2026-05-04 00:46 | 45.08661 | -74.96829 | 38819 ft | 512 kts | 70° |
| 2026-05-04 00:47 | 45.11008 | -74.87329 | 38815 ft | 511 kts | 70° |
| 2026-05-04 00:47 | 45.13346 | -74.77828 | 38813 ft | 511 kts | 71° |
| 2026-05-04 00:48 | 45.15797 | -74.68381 | 38815 ft | 511 kts | 69° |
| 2026-05-04 00:48 | 45.18354 | -74.58981 | 38808 ft | 511 kts | 69° |
| 2026-05-04 00:49 | 45.20897 | -74.49575 | 38805 ft | 511 kts | 69° |
| 2026-05-04 00:49 | 45.23411 | -74.40145 | 38809 ft | 511 kts | 69° |
| 2026-05-04 00:50 | 45.25909 | -74.30693 | 38802 ft | 511 kts | 69° |
| 2026-05-04 00:50 | 45.28398 | -74.21234 | 38813 ft | 512 kts | 69° |
| 2026-05-04 00:51 | 45.30883 | -74.11759 | 38804 ft | 512 kts | 69° |
| 2026-05-04 00:51 | 45.33361 | -74.02274 | 38805 ft | 512 kts | 70° |
| 2026-05-04 00:52 | 45.35792 | -73.92935 | 38806 ft | 512 kts | 70° |
| 2026-05-04 00:52 | 45.38257 | -73.83425 | 38805 ft | 512 kts | 70° |
| 2026-05-04 00:53 | 45.40712 | -73.73912 | 38817 ft | 512 kts | 70° |
| 2026-05-04 00:53 | 45.43143 | -73.64456 | 38807 ft | 512 kts | 70° |
| 2026-05-04 00:54 | 45.45582 | -73.54932 | 38804 ft | 512 kts | 70° |
| 2026-05-04 00:54 | 45.48011 | -73.45406 | 38797 ft | 511 kts | 70° |
| 2026-05-04 00:55 | 45.50429 | -73.35883 | 38802 ft | 511 kts | 70° |
| 2026-05-04 00:55 | 45.52836 | -73.26366 | 38806 ft | 510 kts | 70° |
| 2026-05-04 00:56 | 45.55235 | -73.16838 | 38811 ft | 510 kts | 70° |
| 2026-05-04 00:56 | 45.57629 | -73.07293 | 38809 ft | 511 kts | 70° |
| 2026-05-04 00:57 | 45.59973 | -72.97906 | 38812 ft | 511 kts | 70° |
| 2026-05-04 00:57 | 45.62352 | -72.88342 | 38808 ft | 511 kts | 70° |
| 2026-05-04 00:58 | 45.64727 | -72.78752 | 38816 ft | 512 kts | 70° |
| 2026-05-04 00:58 | 45.67097 | -72.69145 | 38818 ft | 513 kts | 70° |
| 2026-05-04 00:59 | 45.69461 | -72.59518 | 38815 ft | 513 kts | 71° |
| 2026-05-04 00:59 | 45.71817 | -72.49881 | 38811 ft | 513 kts | 71° |
| 2026-05-04 01:00 | 45.74167 | -72.40229 | 38807 ft | 513 kts | 71° |
| 2026-05-04 01:00 | 45.76509 | -72.30572 | 38808 ft | 513 kts | 71° |
| 2026-05-04 01:01 | 45.78843 | -72.20904 | 38823 ft | 513 kts | 71° |
| 2026-05-04 01:01 | 45.81167 | -72.11232 | 38809 ft | 513 kts | 71° |
| 2026-05-04 01:02 | 45.83484 | -72.01549 | 38812 ft | 513 kts | 71° |
| 2026-05-04 01:02 | 45.85750 | -71.92040 | 38809 ft | 512 kts | 71° |
| 2026-05-04 01:03 | 45.88045 | -71.82368 | 38816 ft | 512 kts | 71° |
| 2026-05-04 01:03 | 45.90327 | -71.72704 | 38814 ft | 511 kts | 71° |
| 2026-05-04 01:04 | 45.92601 | -71.63034 | 38817 ft | 511 kts | 71° |
| 2026-05-04 01:04 | 45.94864 | -71.53367 | 38817 ft | 510 kts | 71° |
| 2026-05-04 01:05 | 45.97116 | -71.43708 | 38817 ft | 509 kts | 72° |
| 2026-05-04 01:05 | 45.99357 | -71.34052 | 38818 ft | 509 kts | 72° |
| 2026-05-04 01:06 | 46.01586 | -71.24405 | 38811 ft | 509 kts | 72° |
| 2026-05-04 01:06 | 46.03809 | -71.14740 | 38815 ft | 509 kts | 72° |
| 2026-05-04 01:07 | 46.05650 | -71.06701 | 38807 ft | 509 kts | 72° |
| 2026-05-04 01:07 | 46.07820 | -70.97191 | 38800 ft | 508 kts | 72° |
| 2026-05-04 01:08 | 46.10015 | -70.87525 | 38799 ft | 508 kts | 72° |
| 2026-05-04 01:08 | 46.12202 | -70.77850 | 38796 ft | 507 kts | 72° |
| 2026-05-04 01:09 | 46.14379 | -70.68177 | 38795 ft | 507 kts | 72° |
| 2026-05-04 01:09 | 46.16548 | -70.58499 | 38793 ft | 507 kts | 72° |
| 2026-05-04 01:10 | 46.18708 | -70.48811 | 38777 ft | 507 kts | 73° |
| 2026-05-04 01:10 | 46.20858 | -70.39127 | 38782 ft | 507 kts | 73° |
| 2026-05-04 01:11 | 46.23002 | -70.29432 | 38769 ft | 506 kts | 73° |
| 2026-05-04 01:11 | 46.25119 | -70.19732 | 38774 ft | 506 kts | 73° |
| 2026-05-04 01:12 | 46.27188 | -70.10005 | 38771 ft | 506 kts | 73° |
| 2026-05-04 01:12 | 46.29230 | -70.00337 | 38749 ft | 506 kts | 74° |
| 2026-05-04 01:13 | 46.31248 | -69.90763 | 38749 ft | 506 kts | 74° |
| 2026-05-04 01:13 | 46.33293 | -69.81036 | 38749 ft | 506 kts | 74° |
| 2026-05-04 01:14 | 46.35332 | -69.71297 | 38742 ft | 506 kts | 74° |
| 2026-05-04 01:14 | 46.37361 | -69.61552 | 38741 ft | 505 kts | 74° |
| 2026-05-04 01:15 | 46.39382 | -69.51802 | 38745 ft | 505 kts | 74° |
| 2026-05-04 01:15 | 46.41393 | -69.42052 | 38738 ft | 505 kts | 75° |
| 2026-05-04 01:16 | 46.43394 | -69.32297 | 38742 ft | 505 kts | 75° |
| 2026-05-04 01:16 | 46.45388 | -69.22536 | 38743 ft | 505 kts | 75° |
| 2026-05-04 01:17 | 46.47375 | -69.12760 | 38737 ft | 505 kts | 75° |
| 2026-05-04 01:17 | 46.49353 | -69.02978 | 38737 ft | 505 kts | 75° |
| 2026-05-04 01:18 | 46.51291 | -68.93346 | 38729 ft | 506 kts | 75° |
| 2026-05-04 01:18 | 46.53255 | -68.83539 | 38725 ft | 506 kts | 75° |
| 2026-05-04 01:19 | 46.55209 | -68.73732 | 38720 ft | 506 kts | 75° |
| 2026-05-04 01:19 | 46.57155 | -68.63913 | 38712 ft | 505 kts | 75° |
| 2026-05-04 01:20 | 46.59088 | -68.54113 | 38710 ft | 505 kts | 75° |
| 2026-05-04 01:20 | 46.61016 | -68.44293 | 38705 ft | 505 kts | 76° |
| 2026-05-04 01:21 | 46.62933 | -68.34474 | 38701 ft | 504 kts | 76° |
| 2026-05-04 01:21 | 46.64841 | -68.24653 | 38699 ft | 504 kts | 76° |
| 2026-05-04 01:22 | 46.66738 | -68.14834 | 38690 ft | 504 kts | 76° |
| 2026-05-04 01:22 | 46.68627 | -68.05014 | 38695 ft | 504 kts | 76° |
| 2026-05-04 01:23 | 46.70474 | -67.95356 | 38680 ft | 504 kts | 76° |
| 2026-05-04 01:23 | 46.72346 | -67.85524 | 38693 ft | 503 kts | 76° |
| 2026-05-04 01:24 | 46.74210 | -67.75687 | 38707 ft | 504 kts | 76° |
| 2026-05-04 01:24 | 46.76060 | -67.65902 | 38700 ft | 504 kts | 76° |
| 2026-05-04 01:25 | 46.77915 | -67.56045 | 38706 ft | 504 kts | 76° |
| 2026-05-04 01:25 | 46.79765 | -67.46167 | 38708 ft | 505 kts | 76° |
| 2026-05-04 01:26 | 46.81606 | -67.36279 | 38689 ft | 504 kts | 77° |
| 2026-05-04 01:26 | 46.83435 | -67.26398 | 38694 ft | 504 kts | 77° |
| 2026-05-04 01:27 | 46.85257 | -67.16508 | 38681 ft | 504 kts | 77° |
| 2026-05-04 01:27 | 46.87108 | -67.06623 | 38684 ft | 505 kts | 74° |
| 2026-05-04 01:28 | 46.89718 | -66.97282 | 38668 ft | 506 kts | 66° |
| 2026-05-04 01:28 | 46.92774 | -66.88081 | 38650 ft | 506 kts | 66° |
| 2026-05-04 01:29 | 46.95851 | -66.78821 | 38654 ft | 506 kts | 66° |
| 2026-05-04 01:29 | 46.98887 | -66.69522 | 38651 ft | 506 kts | 66° |
| 2026-05-04 01:30 | 47.01891 | -66.60213 | 38653 ft | 506 kts | 66° |
| 2026-05-04 01:30 | 47.04889 | -66.50873 | 38631 ft | 506 kts | 66° |
| 2026-05-04 01:31 | 47.07880 | -66.41526 | 38650 ft | 506 kts | 67° |
| 2026-05-04 01:31 | 47.10864 | -66.32176 | 38645 ft | 506 kts | 67° |
| 2026-05-04 01:32 | 47.13841 | -66.22812 | 38637 ft | 506 kts | 67° |
| 2026-05-04 01:32 | 47.16809 | -66.13445 | 38654 ft | 506 kts | 67° |
| 2026-05-04 01:33 | 47.19769 | -66.04066 | 38651 ft | 505 kts | 68° |
| 2026-05-04 01:33 | 47.22668 | -65.94847 | 38657 ft | 505 kts | 68° |
| 2026-05-04 01:34 | 47.25612 | -65.85451 | 38659 ft | 505 kts | 68° |
| 2026-05-04 01:34 | 47.28546 | -65.76049 | 38643 ft | 505 kts | 68° |
| 2026-05-04 01:35 | 47.31473 | -65.66638 | 38625 ft | 505 kts | 68° |
| 2026-05-04 01:35 | 47.34391 | -65.57220 | 38639 ft | 505 kts | 68° |
| 2026-05-04 01:36 | 47.37301 | -65.47789 | 38628 ft | 505 kts | 68° |
| 2026-05-04 01:36 | 47.40206 | -65.38341 | 38622 ft | 506 kts | 68° |
| 2026-05-04 01:37 | 47.43109 | -65.28864 | 38616 ft | 507 kts | 68° |
| 2026-05-04 01:37 | 47.46006 | -65.19371 | 38584 ft | 507 kts | 68° |
| 2026-05-04 01:38 | 47.48895 | -65.09869 | 38590 ft | 507 kts | 69° |
| 2026-05-04 01:38 | 47.51757 | -65.00420 | 38545 ft | 507 kts | 69° |
| 2026-05-04 01:39 | 47.54599 | -64.90998 | 38564 ft | 507 kts | 69° |
| 2026-05-04 01:39 | 47.57465 | -64.81461 | 38566 ft | 507 kts | 69° |
| 2026-05-04 01:40 | 47.60306 | -64.71973 | 38556 ft | 507 kts | 69° |
| 2026-05-04 01:40 | 47.63155 | -64.62419 | 38561 ft | 507 kts | 69° |
| 2026-05-04 01:41 | 47.65999 | -64.52847 | 38571 ft | 507 kts | 69° |
| 2026-05-04 01:41 | 47.68834 | -64.43267 | 38554 ft | 507 kts | 69° |
| 2026-05-04 01:42 | 47.71661 | -64.33677 | 38543 ft | 507 kts | 70° |
| 2026-05-04 01:42 | 47.74479 | -64.24080 | 38537 ft | 507 kts | 70° |
| 2026-05-04 01:43 | 47.77291 | -64.14463 | 38538 ft | 508 kts | 70° |
| 2026-05-04 01:43 | 47.80100 | -64.04822 | 38539 ft | 508 kts | 70° |
| 2026-05-04 01:44 | 47.82858 | -63.95317 | 38520 ft | 509 kts | 70° |
| 2026-05-04 01:44 | 47.85656 | -63.85636 | 38512 ft | 509 kts | 70° |
| 2026-05-04 01:45 | 47.88443 | -63.75955 | 38520 ft | 509 kts | 71° |
| 2026-05-04 01:45 | 47.92607 | -63.61420 | 38502 ft | 508 kts | 71° |
| 2026-05-04 01:46 | 47.95371 | -63.51721 | 38515 ft | 508 kts | 71° |
| 2026-05-04 01:46 | 47.98128 | -63.42010 | 38513 ft | 508 kts | 71° |
| 2026-05-04 01:47 | 48.00872 | -63.32303 | 38519 ft | 508 kts | 71° |
| 2026-05-04 01:47 | 48.03614 | -63.22565 | 38518 ft | 509 kts | 71° |
| 2026-05-04 01:48 | 48.06348 | -63.12814 | 38499 ft | 509 kts | 71° |
| 2026-05-04 01:48 | 48.09073 | -63.03060 | 38497 ft | 509 kts | 72° |
| 2026-05-04 01:49 | 48.11746 | -62.93447 | 38489 ft | 508 kts | 72° |
| 2026-05-04 01:49 | 48.14451 | -62.83684 | 38499 ft | 508 kts | 71° |
| 2026-05-04 01:50 | 48.17147 | -62.73913 | 38496 ft | 507 kts | 72° |
| 2026-05-04 01:50 | 48.19814 | -62.64207 | 38488 ft | 507 kts | 72° |
| 2026-05-04 01:51 | 48.22491 | -62.54424 | 38481 ft | 507 kts | 72° |
| 2026-05-04 01:51 | 48.25156 | -62.44645 | 38496 ft | 506 kts | 72° |
| 2026-05-04 01:52 | 48.27809 | -62.34867 | 38465 ft | 506 kts | 72° |
| 2026-05-04 01:52 | 48.30454 | -62.25078 | 38489 ft | 506 kts | 72° |
| 2026-05-04 01:53 | 48.33089 | -62.15286 | 38489 ft | 506 kts | 72° |
| 2026-05-04 01:53 | 48.35716 | -62.05483 | 38477 ft | 506 kts | 73° |
| 2026-05-04 01:54 | 48.38293 | -61.95825 | 38483 ft | 506 kts | 73° |
| 2026-05-04 01:54 | 48.40466 | -61.87652 | 38497 ft | 506 kts | 73° |
| 2026-05-04 01:55 | 48.43071 | -61.77812 | 38480 ft | 506 kts | 73° |
| 2026-05-04 01:55 | 48.45672 | -61.67951 | 38471 ft | 506 kts | 73° |
| 2026-05-04 01:56 | 48.48262 | -61.58087 | 38499 ft | 506 kts | 73° |
| 2026-05-04 01:56 | 48.50845 | -61.48206 | 38493 ft | 507 kts | 74° |
| 2026-05-04 01:57 | 48.53422 | -61.38305 | 38500 ft | 507 kts | 74° |
| 2026-05-04 01:57 | 48.55994 | -61.28384 | 38491 ft | 508 kts | 74° |
| 2026-05-04 01:58 | 48.58557 | -61.18450 | 38486 ft | 508 kts | 74° |
| 2026-05-04 01:58 | 48.61114 | -61.08501 | 38496 ft | 508 kts | 74° |
| 2026-05-04 01:59 | 48.63620 | -60.98706 | 38486 ft | 507 kts | 74° |
| 2026-05-04 01:59 | 48.66155 | -60.88757 | 38498 ft | 507 kts | 74° |
| 2026-05-04 02:00 | 48.68680 | -60.78800 | 38506 ft | 507 kts | 75° |
| 2026-05-04 02:00 | 48.71196 | -60.68837 | 38492 ft | 506 kts | 75° |
| 2026-05-04 02:01 | 48.73698 | -60.58882 | 38518 ft | 506 kts | 75° |
| 2026-05-04 02:01 | 48.76191 | -60.48920 | 38511 ft | 505 kts | 75° |
| 2026-05-04 02:02 | 48.78672 | -60.38962 | 38509 ft | 505 kts | 75° |
| 2026-05-04 02:02 | 48.81145 | -60.28996 | 38491 ft | 504 kts | 75° |
| 2026-05-04 02:03 | 48.83604 | -60.19040 | 38511 ft | 503 kts | 75° |
| 2026-05-04 02:03 | 48.86050 | -60.09086 | 38521 ft | 503 kts | 75° |
| 2026-05-04 02:04 | 48.88449 | -59.99286 | 38522 ft | 503 kts | 75° |
| 2026-05-04 02:04 | 48.90878 | -59.89316 | 38524 ft | 503 kts | 75° |
| 2026-05-04 02:05 | 48.93298 | -59.79340 | 38513 ft | 503 kts | 76° |
| 2026-05-04 02:05 | 48.95708 | -59.69359 | 38535 ft | 503 kts | 76° |
| 2026-05-04 02:06 | 48.98094 | -59.59431 | 38507 ft | 503 kts | 76° |
| 2026-05-04 02:06 | 49.00482 | -59.49452 | 38535 ft | 503 kts | 76° |
| 2026-05-04 02:07 | 49.02870 | -59.39429 | 38543 ft | 504 kts | 76° |
| 2026-05-04 02:07 | 49.05251 | -59.29386 | 38533 ft | 505 kts | 77° |
| 2026-05-04 02:08 | 49.07629 | -59.19304 | 38548 ft | 506 kts | 77° |
| 2026-05-04 02:08 | 49.10007 | -59.09180 | 38563 ft | 507 kts | 77° |
| 2026-05-04 02:09 | 49.12343 | -58.99192 | 38558 ft | 509 kts | 77° |
| 2026-05-04 02:09 | 49.14713 | -58.89010 | 38541 ft | 509 kts | 77° |
| 2026-05-04 02:10 | 49.17078 | -58.78803 | 38565 ft | 510 kts | 77° |
| 2026-05-04 02:10 | 49.19436 | -58.68573 | 38587 ft | 511 kts | 77° |
| 2026-05-04 02:11 | 49.21787 | -58.58325 | 38587 ft | 511 kts | 77° |
| 2026-05-04 02:11 | 49.24131 | -58.48060 | 38585 ft | 511 kts | 77° |
| 2026-05-04 02:12 | 49.26463 | -58.37796 | 38585 ft | 511 kts | 77° |
| 2026-05-04 02:12 | 49.28788 | -58.27513 | 38592 ft | 511 kts | 77° |
| 2026-05-04 02:13 | 49.31103 | -58.17221 | 38582 ft | 511 kts | 77° |
| 2026-05-04 02:13 | 49.33412 | -58.06911 | 38617 ft | 512 kts | 78° |
| 2026-05-04 02:14 | 49.35677 | -57.96745 | 38634 ft | 512 kts | 78° |
| 2026-05-04 02:14 | 49.37974 | -57.86385 | 38632 ft | 513 kts | 77° |
| 2026-05-04 02:15 | 49.40263 | -57.76009 | 38658 ft | 513 kts | 77° |
| 2026-05-04 02:15 | 49.42545 | -57.65616 | 38674 ft | 514 kts | 77° |
| 2026-05-04 02:16 | 49.44818 | -57.55212 | 38697 ft | 514 kts | 78° |
| 2026-05-04 02:16 | 49.47083 | -57.44793 | 38654 ft | 514 kts | 78° |
| 2026-05-04 02:17 | 49.49334 | -57.34384 | 38708 ft | 513 kts | 78° |
| 2026-05-04 02:17 | 49.51561 | -57.24031 | 38716 ft | 513 kts | 78° |
| 2026-05-04 02:18 | 49.53796 | -57.13582 | 38731 ft | 515 kts | 78° |
| 2026-05-04 02:18 | 49.56027 | -57.03104 | 38728 ft | 515 kts | 78° |
| 2026-05-04 02:19 | 49.58217 | -56.92769 | 38738 ft | 516 kts | 78° |
| 2026-05-04 02:19 | 49.60433 | -56.82257 | 38731 ft | 515 kts | 78° |
| 2026-05-04 02:20 | 49.62638 | -56.71744 | 38752 ft | 515 kts | 78° |
| 2026-05-04 02:20 | 49.64835 | -56.61215 | 38747 ft | 515 kts | 78° |
| 2026-05-04 02:21 | 49.67024 | -56.50661 | 38757 ft | 517 kts | 78° |
| 2026-05-04 02:21 | 49.69205 | -56.40091 | 38760 ft | 518 kts | 78° |
| 2026-05-04 02:22 | 49.71382 | -56.29484 | 38765 ft | 518 kts | 78° |
| 2026-05-04 02:22 | 49.73553 | -56.18855 | 38778 ft | 519 kts | 78° |
| 2026-05-04 02:23 | 49.75715 | -56.08212 | 38768 ft | 519 kts | 78° |
| 2026-05-04 02:23 | 49.77818 | -55.97803 | 38778 ft | 519 kts | 78° |
| 2026-05-04 02:24 | 49.79961 | -55.87139 | 38758 ft | 519 kts | 78° |
| 2026-05-04 02:24 | 49.82095 | -55.76458 | 38775 ft | 519 kts | 78° |
| 2026-05-04 02:25 | 49.84218 | -55.65778 | 38776 ft | 519 kts | 78° |
| 2026-05-04 02:25 | 49.86331 | -55.55087 | 38778 ft | 519 kts | 78° |
| 2026-05-04 02:26 | 49.88432 | -55.44398 | 38775 ft | 518 kts | 78° |
| 2026-05-04 02:26 | 49.90522 | -55.33702 | 38769 ft | 518 kts | 78° |
| 2026-05-04 02:27 | 49.92603 | -55.22997 | 38780 ft | 518 kts | 78° |
| 2026-05-04 02:27 | 49.94672 | -55.12295 | 38768 ft | 518 kts | 78° |
| 2026-05-04 02:28 | 49.96735 | -55.01558 | 38775 ft | 519 kts | 78° |
| 2026-05-04 02:28 | 49.98759 | -54.90967 | 38783 ft | 520 kts | 78° |
| 2026-05-04 02:29 | 50.00805 | -54.80199 | 38773 ft | 521 kts | 78° |
| 2026-05-04 02:29 | 50.02850 | -54.69378 | 38786 ft | 522 kts | 78° |
| 2026-05-04 02:30 | 50.04890 | -54.58523 | 38790 ft | 523 kts | 78° |
| 2026-05-04 02:30 | 50.06920 | -54.47657 | 38789 ft | 523 kts | 79° |
| 2026-05-04 02:31 | 50.08941 | -54.36772 | 38780 ft | 523 kts | 78° |
| 2026-05-04 02:31 | 50.10954 | -54.25865 | 38787 ft | 525 kts | 78° |
| 2026-05-04 02:32 | 50.12961 | -54.14927 | 38799 ft | 526 kts | 78° |
| 2026-05-04 02:32 | 50.14949 | -54.04026 | 38800 ft | 527 kts | 78° |
| 2026-05-04 02:33 | 50.16911 | -53.93207 | 38807 ft | 528 kts | 79° |
| 2026-05-04 02:33 | 50.18898 | -53.82185 | 38807 ft | 528 kts | 79° |
| 2026-05-04 02:34 | 50.20876 | -53.71147 | 38809 ft | 528 kts | 79° |
| 2026-05-04 02:34 | 50.22840 | -53.60118 | 38796 ft | 527 kts | 79° |
| 2026-05-04 02:35 | 50.24792 | -53.49083 | 38804 ft | 527 kts | 79° |
| 2026-05-04 02:35 | 50.26735 | -53.38037 | 38809 ft | 527 kts | 79° |
| 2026-05-04 02:36 | 50.28666 | -53.26982 | 38812 ft | 527 kts | 78° |
| 2026-05-04 02:36 | 50.30589 | -53.15911 | 38815 ft | 527 kts | 78° |
| 2026-05-04 02:37 | 50.32502 | -53.04832 | 38816 ft | 528 kts | 79° |
| 2026-05-04 02:37 | 50.34372 | -52.93925 | 38819 ft | 528 kts | 79° |
| 2026-05-04 02:38 | 50.36264 | -52.82825 | 38804 ft | 527 kts | 79° |
| 2026-05-04 02:38 | 50.38145 | -52.71717 | 38828 ft | 528 kts | 78° |
| 2026-05-04 02:39 | 50.40019 | -52.60582 | 38834 ft | 529 kts | 78° |
| 2026-05-04 02:39 | 50.41886 | -52.49410 | 38826 ft | 530 kts | 78° |
| 2026-05-04 02:40 | 50.43432 | -52.40108 | 38836 ft | 530 kts | 78° |
| 2026-05-04 02:40 | 50.45581 | -52.27087 | 38832 ft | 531 kts | 78° |
| 2026-05-04 02:41 | 50.47421 | -52.15863 | 38838 ft | 531 kts | 78° |
| 2026-05-04 02:41 | 50.48955 | -52.06457 | 38822 ft | 531 kts | 78° |
| 2026-05-04 02:42 | 50.51047 | -51.95534 | 38836 ft | 533 kts | 70° |
| 2026-05-04 02:42 | 50.53859 | -51.84757 | 38856 ft | 533 kts | 68° |
| 2026-05-04 02:43 | 50.56709 | -51.74064 | 38857 ft | 534 kts | 68° |
| 2026-05-04 02:43 | 50.59532 | -51.63253 | 38853 ft | 534 kts | 69° |
| 2026-05-04 02:44 | 50.62317 | -51.52402 | 38860 ft | 535 kts | 69° |
| 2026-05-04 02:44 | 50.65084 | -51.41536 | 38859 ft | 534 kts | 69° |
| 2026-05-04 02:45 | 50.67844 | -51.30660 | 38872 ft | 534 kts | 69° |
| 2026-05-04 02:45 | 50.70592 | -51.19788 | 38866 ft | 533 kts | 69° |
| 2026-05-04 02:46 | 50.73327 | -51.08923 | 38844 ft | 532 kts | 69° |
| 2026-05-04 02:46 | 50.76000 | -50.98246 | 38870 ft | 531 kts | 69° |
| 2026-05-04 02:47 | 50.78701 | -50.87403 | 38885 ft | 530 kts | 68° |
| 2026-05-04 02:47 | 50.81393 | -50.76546 | 38888 ft | 530 kts | 68° |
| 2026-05-04 02:48 | 50.84071 | -50.65695 | 38887 ft | 530 kts | 68° |
| 2026-05-04 02:48 | 50.86738 | -50.54832 | 38892 ft | 529 kts | 69° |
| 2026-05-04 02:49 | 50.89393 | -50.43967 | 38895 ft | 529 kts | 69° |
| 2026-05-04 02:49 | 50.92031 | -50.33112 | 38904 ft | 527 kts | 68° |
| 2026-05-04 02:50 | 50.94649 | -50.22291 | 38901 ft | 525 kts | 68° |
| 2026-05-04 02:50 | 50.97245 | -50.11508 | 38900 ft | 522 kts | 69° |
| 2026-05-04 02:51 | 50.99802 | -50.00834 | 38912 ft | 519 kts | 68° |
| 2026-05-04 02:51 | 51.02382 | -49.90353 | 38922 ft | 517 kts | 66° |
| 2026-05-04 02:52 | 51.05063 | -49.79780 | 38918 ft | 515 kts | 66° |
| 2026-05-04 02:52 | 51.07729 | -49.69219 | 38931 ft | 514 kts | 67° |
| 2026-05-04 02:53 | 51.10363 | -49.58671 | 38934 ft | 513 kts | 67° |
| 2026-05-04 02:53 | 51.12976 | -49.48116 | 38951 ft | 512 kts | 66° |
| 2026-05-04 02:54 | 51.15578 | -49.37556 | 38941 ft | 512 kts | 66° |
| 2026-05-04 02:54 | 51.18173 | -49.26980 | 38948 ft | 513 kts | 66° |
| 2026-05-04 02:55 | 51.22052 | -49.11077 | 38957 ft | 513 kts | 67° |
| 2026-05-04 02:56 | 51.24629 | -49.00444 | 38957 ft | 514 kts | 67° |
| 2026-05-04 02:56 | 51.27157 | -48.89963 | 38957 ft | 514 kts | 66° |
| 2026-05-04 02:57 | 51.29718 | -48.79299 | 38968 ft | 514 kts | 67° |
| 2026-05-04 02:57 | 51.32268 | -48.68622 | 38968 ft | 514 kts | 67° |
| 2026-05-04 02:58 | 51.34809 | -48.57935 | 38989 ft | 514 kts | 67° |
| 2026-05-04 02:58 | 51.37333 | -48.47261 | 38974 ft | 512 kts | 67° |
| 2026-05-04 02:59 | 51.39838 | -48.36620 | 38978 ft | 509 kts | 67° |
| 2026-05-04 02:59 | 51.42303 | -48.26094 | 38983 ft | 507 kts | 67° |
| 2026-05-04 03:00 | 51.44766 | -48.15528 | 38990 ft | 505 kts | 67° |
| 2026-05-04 03:00 | 51.47210 | -48.04991 | 39002 ft | 503 kts | 67° |
| 2026-05-04 03:01 | 51.49597 | -47.94647 | 39006 ft | 502 kts | 67° |
| 2026-05-04 03:01 | 51.52012 | -47.84135 | 39010 ft | 501 kts | 67° |
| 2026-05-04 03:02 | 51.54413 | -47.73629 | 39014 ft | 501 kts | 67° |
| 2026-05-04 03:02 | 51.56806 | -47.63107 | 39033 ft | 502 kts | 68° |
| 2026-05-04 03:03 | 51.59198 | -47.52542 | 39026 ft | 504 kts | 68° |
| 2026-05-04 03:03 | 51.61593 | -47.41902 | 39035 ft | 507 kts | 68° |
| 2026-05-04 03:04 | 51.63987 | -47.31213 | 39034 ft | 509 kts | 68° |
| 2026-05-04 03:04 | 51.66383 | -47.20464 | 39039 ft | 510 kts | 68° |
| 2026-05-04 03:05 | 51.68771 | -47.09688 | 39044 ft | 513 kts | 68° |
| 2026-05-04 03:05 | 51.71122 | -46.99029 | 39052 ft | 514 kts | 68° |
| 2026-05-04 03:06 | 51.73509 | -46.88149 | 39061 ft | 515 kts | 68° |
| 2026-05-04 03:06 | 51.75886 | -46.77258 | 39059 ft | 515 kts | 68° |
| 2026-05-04 03:07 | 51.78253 | -46.66354 | 39078 ft | 516 kts | 68° |
| 2026-05-04 03:07 | 51.80620 | -46.55395 | 39077 ft | 518 kts | 68° |
| 2026-05-04 03:08 | 51.82987 | -46.44377 | 39087 ft | 520 kts | 69° |
| 2026-05-04 03:08 | 51.85350 | -46.33313 | 39088 ft | 521 kts | 69° |
| 2026-05-04 03:09 | 51.87710 | -46.22206 | 39125 ft | 523 kts | 69° |
| 2026-05-04 03:09 | 51.90056 | -46.11106 | 39104 ft | 526 kts | 69° |
| 2026-05-04 03:10 | 51.92412 | -45.99895 | 39111 ft | 529 kts | 69° |
| 2026-05-04 03:10 | 51.94746 | -45.88726 | 39123 ft | 531 kts | 69° |
| 2026-05-04 03:11 | 51.97109 | -45.77354 | 39114 ft | 532 kts | 69° |
| 2026-05-04 03:11 | 51.99460 | -45.65968 | 39132 ft | 532 kts | 69° |
| 2026-05-04 03:12 | 52.01792 | -45.54616 | 39114 ft | 530 kts | 69° |
| 2026-05-04 03:12 | 52.04104 | -45.43293 | 39121 ft | 526 kts | 69° |
| 2026-05-04 03:13 | 52.06389 | -45.32043 | 39131 ft | 523 kts | 69° |
| 2026-05-04 03:13 | 52.08652 | -45.20835 | 39146 ft | 520 kts | 69° |
| 2026-05-04 03:14 | 52.10895 | -45.09663 | 39149 ft | 519 kts | 69° |
| 2026-05-04 03:14 | 52.13087 | -44.98686 | 39147 ft | 517 kts | 69° |
| 2026-05-04 03:15 | 52.15296 | -44.87562 | 39156 ft | 516 kts | 70° |
| 2026-05-04 03:15 | 52.17494 | -44.76427 | 39158 ft | 516 kts | 70° |
| 2026-05-04 03:16 | 52.19678 | -44.65297 | 39172 ft | 515 kts | 70° |
| 2026-05-04 03:16 | 52.21846 | -44.54185 | 39178 ft | 514 kts | 70° |
| 2026-05-04 03:17 | 52.23999 | -44.43088 | 39174 ft | 513 kts | 70° |
| 2026-05-04 03:17 | 52.26136 | -44.32009 | 39178 ft | 511 kts | 70° |
| 2026-05-04 03:18 | 52.28256 | -44.20949 | 39182 ft | 510 kts | 70° |
| 2026-05-04 03:18 | 52.30363 | -44.09897 | 39198 ft | 509 kts | 70° |
| 2026-05-04 03:19 | 52.32424 | -43.99024 | 39199 ft | 509 kts | 70° |
| 2026-05-04 03:19 | 52.34506 | -43.87974 | 39199 ft | 509 kts | 70° |
| 2026-05-04 03:20 | 52.36581 | -43.76898 | 39216 ft | 509 kts | 70° |
| 2026-05-04 03:20 | 52.38633 | -43.65880 | 39217 ft | 509 kts | 71° |
| 2026-05-04 03:21 | 52.40686 | -43.54787 | 39208 ft | 509 kts | 71° |
| 2026-05-04 03:21 | 52.42728 | -43.43688 | 39215 ft | 509 kts | 71° |
| 2026-05-04 03:22 | 52.44758 | -43.32587 | 39223 ft | 508 kts | 71° |
| 2026-05-04 03:22 | 52.46777 | -43.21482 | 39237 ft | 508 kts | 71° |
| 2026-05-04 03:23 | 52.48784 | -43.10379 | 39234 ft | 507 kts | 71° |
| 2026-05-04 03:23 | 52.50745 | -42.99453 | 39232 ft | 507 kts | 72° |
| 2026-05-04 03:24 | 52.52726 | -42.88356 | 39235 ft | 506 kts | 72° |
| 2026-05-04 03:24 | 52.54694 | -42.77261 | 39241 ft | 506 kts | 72° |
| 2026-05-04 03:25 | 52.56651 | -42.66166 | 39256 ft | 505 kts | 72° |
| 2026-05-04 03:25 | 52.58596 | -42.55065 | 39261 ft | 505 kts | 72° |
| 2026-05-04 03:26 | 52.60530 | -42.43956 | 39262 ft | 505 kts | 72° |
| 2026-05-04 03:26 | 52.62453 | -42.32847 | 39265 ft | 505 kts | 72° |
| 2026-05-04 03:27 | 52.64365 | -42.21728 | 39280 ft | 505 kts | 73° |
| 2026-05-04 03:27 | 52.66254 | -42.10673 | 39277 ft | 505 kts | 73° |
| 2026-05-04 03:28 | 52.68121 | -41.99679 | 39276 ft | 505 kts | 73° |
| 2026-05-04 03:28 | 52.69695 | -41.90351 | 39273 ft | 505 kts | 73° |
| 2026-05-04 03:29 | 52.71873 | -41.77368 | 39282 ft | 506 kts | 73° |
| 2026-05-04 03:29 | 52.73435 | -41.67994 | 39300 ft | 506 kts | 73° |
| 2026-05-04 03:30 | 52.75293 | -41.56780 | 39283 ft | 506 kts | 73° |
| 2026-05-04 03:30 | 52.77139 | -41.45560 | 39295 ft | 507 kts | 73° |
| 2026-05-04 03:31 | 52.78976 | -41.34326 | 39297 ft | 507 kts | 73° |
| 2026-05-04 03:31 | 52.80801 | -41.23087 | 39307 ft | 507 kts | 74° |
| 2026-05-04 03:32 | 52.82616 | -41.11833 | 39302 ft | 507 kts | 74° |
| 2026-05-04 03:32 | 52.84420 | -41.00580 | 39310 ft | 506 kts | 74° |
| 2026-05-04 03:33 | 52.86172 | -40.89572 | 39315 ft | 506 kts | 74° |
| 2026-05-04 03:33 | 52.87952 | -40.78311 | 39315 ft | 506 kts | 74° |
| 2026-05-04 03:34 | 52.89721 | -40.67048 | 39325 ft | 505 kts | 75° |
| 2026-05-04 03:34 | 52.91478 | -40.55784 | 39321 ft | 505 kts | 75° |
| 2026-05-04 03:35 | 52.93220 | -40.44536 | 39325 ft | 504 kts | 75° |
| 2026-05-04 03:35 | 52.94952 | -40.33274 | 39326 ft | 504 kts | 75° |
| 2026-05-04 03:36 | 52.96674 | -40.22004 | 39340 ft | 504 kts | 75° |
| 2026-05-04 03:36 | 52.98385 | -40.10730 | 39345 ft | 504 kts | 75° |
| 2026-05-04 03:37 | 53.00131 | -39.99670 | 39343 ft | 503 kts | 71° |
| 2026-05-04 03:37 | 53.02671 | -39.88899 | 39349 ft | 501 kts | 65° |
| 2026-05-04 03:38 | 53.05411 | -39.78254 | 39345 ft | 501 kts | 65° |
| 2026-05-04 03:38 | 53.08130 | -39.67583 | 39360 ft | 501 kts | 66° |
| 2026-05-04 03:39 | 53.10807 | -39.56881 | 39354 ft | 501 kts | 66° |
| 2026-05-04 03:39 | 53.13462 | -39.46144 | 39352 ft | 501 kts | 66° |
| 2026-05-04 03:40 | 53.16104 | -39.35399 | 39351 ft | 501 kts | 66° |
| 2026-05-04 03:40 | 53.18736 | -39.24650 | 39358 ft | 501 kts | 66° |
| 2026-05-04 03:41 | 53.21362 | -39.13882 | 39361 ft | 501 kts | 66° |
| 2026-05-04 03:41 | 53.23975 | -39.03112 | 39358 ft | 501 kts | 67° |
| 2026-05-04 03:42 | 53.26537 | -38.92504 | 39362 ft | 500 kts | 67° |
| 2026-05-04 03:42 | 53.29130 | -38.81711 | 39361 ft | 500 kts | 67° |
| 2026-05-04 03:43 | 53.31713 | -38.70908 | 39371 ft | 500 kts | 67° |
| 2026-05-04 03:43 | 53.34285 | -38.60097 | 39365 ft | 500 kts | 67° |
| 2026-05-04 03:44 | 53.36845 | -38.49279 | 39366 ft | 500 kts | 67° |
| 2026-05-04 03:44 | 53.39392 | -38.38462 | 39372 ft | 499 kts | 67° |
| 2026-05-04 03:45 | 53.41930 | -38.27632 | 39376 ft | 499 kts | 68° |
| 2026-05-04 03:45 | 53.44438 | -38.16878 | 39373 ft | 498 kts | 68° |
| 2026-05-04 03:46 | 53.46951 | -38.06045 | 39371 ft | 498 kts | 68° |
| 2026-05-04 03:46 | 53.49410 | -37.95391 | 39377 ft | 497 kts | 68° |
| 2026-05-04 03:47 | 53.51898 | -37.84554 | 39377 ft | 497 kts | 68° |
| 2026-05-04 03:47 | 53.54375 | -37.73714 | 39379 ft | 497 kts | 68° |
| 2026-05-04 03:48 | 53.56843 | -37.62856 | 39382 ft | 497 kts | 68° |
| 2026-05-04 03:48 | 53.59297 | -37.52002 | 39382 ft | 496 kts | 68° |
| 2026-05-04 03:49 | 53.61741 | -37.41136 | 39383 ft | 496 kts | 68° |
| 2026-05-04 03:49 | 53.64174 | -37.30264 | 39386 ft | 496 kts | 68° |
| 2026-05-04 03:50 | 53.66598 | -37.19378 | 39382 ft | 496 kts | 68° |
| 2026-05-04 03:50 | 53.69012 | -37.08479 | 39383 ft | 496 kts | 69° |
| 2026-05-04 03:51 | 53.71377 | -36.97744 | 39388 ft | 496 kts | 69° |
| 2026-05-04 03:51 | 53.73772 | -36.86817 | 39381 ft | 496 kts | 69° |
| 2026-05-04 03:52 | 53.76158 | -36.75871 | 39389 ft | 497 kts | 69° |
| 2026-05-04 03:52 | 53.78535 | -36.64908 | 39389 ft | 497 kts | 69° |
| 2026-05-04 03:53 | 53.80905 | -36.53921 | 39391 ft | 497 kts | 69° |
| 2026-05-04 03:53 | 53.83264 | -36.42923 | 39391 ft | 497 kts | 69° |
| 2026-05-04 03:54 | 53.85614 | -36.31909 | 39390 ft | 497 kts | 69° |
| 2026-05-04 03:54 | 53.87955 | -36.20879 | 39388 ft | 498 kts | 69° |
| 2026-05-04 03:55 | 53.90272 | -36.09905 | 39389 ft | 498 kts | 69° |
| 2026-05-04 03:55 | 53.92555 | -35.99030 | 39390 ft | 498 kts | 69° |
| 2026-05-04 03:56 | 53.94866 | -35.87958 | 39396 ft | 498 kts | 69° |
| 2026-05-04 03:56 | 53.97168 | -35.76871 | 39389 ft | 498 kts | 70° |
| 2026-05-04 03:57 | 53.99461 | -35.65767 | 39393 ft | 498 kts | 70° |
| 2026-05-04 03:57 | 54.01742 | -35.54662 | 39390 ft | 498 kts | 70° |
| 2026-05-04 03:58 | 54.05147 | -35.37963 | 39396 ft | 498 kts | 70° |
| 2026-05-04 03:58 | 54.07403 | -35.26818 | 39390 ft | 498 kts | 70° |
| 2026-05-04 03:59 | 54.09652 | -35.15651 | 39388 ft | 498 kts | 70° |
| 2026-05-04 03:59 | 54.11889 | -35.04474 | 39389 ft | 498 kts | 70° |
| 2026-05-04 04:00 | 54.14081 | -34.93464 | 39389 ft | 498 kts | 70° |
| 2026-05-04 04:00 | 54.16298 | -34.82262 | 39395 ft | 498 kts | 70° |
| 2026-05-04 04:01 | 54.18505 | -34.71044 | 39390 ft | 498 kts | 70° |
| 2026-05-04 04:01 | 54.20702 | -34.59819 | 39380 ft | 498 kts | 71° |
| 2026-05-04 04:02 | 54.22887 | -34.48584 | 39386 ft | 498 kts | 71° |
| 2026-05-04 04:02 | 54.25062 | -34.37337 | 39385 ft | 498 kts | 71° |
| 2026-05-04 04:03 | 54.27225 | -34.26087 | 39385 ft | 498 kts | 71° |
| 2026-05-04 04:03 | 54.29378 | -34.14818 | 39388 ft | 498 kts | 71° |
| 2026-05-04 04:04 | 54.31519 | -34.03548 | 39388 ft | 498 kts | 71° |
| 2026-05-04 04:04 | 54.33615 | -33.92451 | 39388 ft | 498 kts | 71° |
| 2026-05-04 04:05 | 54.35735 | -33.81156 | 39387 ft | 498 kts | 71° |
| 2026-05-04 04:05 | 54.37846 | -33.69847 | 39385 ft | 498 kts | 71° |
| 2026-05-04 04:06 | 54.39946 | -33.58525 | 39386 ft | 498 kts | 71° |
| 2026-05-04 04:06 | 54.42036 | -33.47189 | 39383 ft | 498 kts | 71° |
| 2026-05-04 04:07 | 54.44114 | -33.35846 | 39389 ft | 498 kts | 72° |
| 2026-05-04 04:07 | 54.46167 | -33.24575 | 39383 ft | 498 kts | 72° |
| 2026-05-04 04:08 | 54.48225 | -33.13204 | 39385 ft | 498 kts | 72° |
| 2026-05-04 04:08 | 54.50270 | -33.01836 | 39383 ft | 498 kts | 72° |
| 2026-05-04 04:09 | 54.52272 | -32.90636 | 39382 ft | 497 kts | 72° |
| 2026-05-04 04:09 | 54.54296 | -32.79246 | 39385 ft | 497 kts | 72° |
| 2026-05-04 04:10 | 54.56308 | -32.67853 | 39379 ft | 497 kts | 72° |
| 2026-05-04 04:10 | 54.58309 | -32.56445 | 39377 ft | 497 kts | 72° |
| 2026-05-04 04:11 | 54.60298 | -32.45033 | 39375 ft | 497 kts | 72° |
| 2026-05-04 04:11 | 54.62277 | -32.33609 | 39381 ft | 497 kts | 72° |
| 2026-05-04 04:12 | 54.64242 | -32.22191 | 39366 ft | 496 kts | 72° |
| 2026-05-04 04:12 | 54.66197 | -32.10759 | 39374 ft | 496 kts | 73° |
| 2026-05-04 04:13 | 54.68110 | -31.99503 | 39374 ft | 496 kts | 73° |
| 2026-05-04 04:13 | 54.69715 | -31.90000 | 39374 ft | 496 kts | 73° |
| 2026-05-04 04:14 | 54.71637 | -31.78554 | 39381 ft | 496 kts | 73° |
| 2026-05-04 04:14 | 54.73547 | -31.67099 | 39373 ft | 496 kts | 73° |
| 2026-05-04 04:15 | 54.75446 | -31.55638 | 39375 ft | 495 kts | 73° |
| 2026-05-04 04:15 | 54.77334 | -31.44171 | 39375 ft | 495 kts | 73° |
| 2026-05-04 04:16 | 54.79210 | -31.32696 | 39372 ft | 495 kts | 73° |
| 2026-05-04 04:16 | 54.81076 | -31.21207 | 39373 ft | 495 kts | 73° |
| 2026-05-04 04:17 | 54.82930 | -31.09713 | 39367 ft | 495 kts | 73° |
| 2026-05-04 04:17 | 54.84743 | -30.98399 | 39365 ft | 495 kts | 73° |
| 2026-05-04 04:18 | 54.86574 | -30.86891 | 39365 ft | 495 kts | 74° |
| 2026-05-04 04:18 | 54.88395 | -30.75375 | 39372 ft | 494 kts | 74° |
| 2026-05-04 04:19 | 54.90203 | -30.63854 | 39363 ft | 494 kts | 74° |
| 2026-05-04 04:19 | 54.91988 | -30.52406 | 39359 ft | 494 kts | 74° |
| 2026-05-04 04:20 | 54.93773 | -30.40875 | 39362 ft | 494 kts | 74° |
| 2026-05-04 04:20 | 54.95546 | -30.29340 | 39361 ft | 494 kts | 74° |
| 2026-05-04 04:21 | 54.97308 | -30.17796 | 39367 ft | 493 kts | 74° |
| 2026-05-04 04:21 | 54.99060 | -30.06246 | 39358 ft | 493 kts | 75° |
| 2026-05-04 04:22 | 55.00759 | -29.94884 | 39358 ft | 493 kts | 75° |
| 2026-05-04 04:22 | 55.02417 | -29.83301 | 39355 ft | 493 kts | 75° |
| 2026-05-04 04:23 | 55.04050 | -29.71706 | 39361 ft | 492 kts | 75° |
| 2026-05-04 04:23 | 55.05678 | -29.60117 | 39356 ft | 492 kts | 76° |
| 2026-05-04 04:24 | 55.07301 | -29.48516 | 39347 ft | 492 kts | 76° |
| 2026-05-04 04:24 | 55.08911 | -29.36929 | 39352 ft | 491 kts | 76° |
| 2026-05-04 04:25 | 55.10510 | -29.25334 | 39349 ft | 491 kts | 76° |
| 2026-05-04 04:25 | 55.12097 | -29.13735 | 39351 ft | 491 kts | 76° |
| 2026-05-04 04:26 | 55.13671 | -29.02142 | 39348 ft | 490 kts | 76° |
| 2026-05-04 04:26 | 55.15209 | -28.90726 | 39349 ft | 490 kts | 76° |
| 2026-05-04 04:27 | 55.16762 | -28.79108 | 39347 ft | 490 kts | 76° |
| 2026-05-04 04:27 | 55.18302 | -28.67492 | 39347 ft | 490 kts | 76° |
| 2026-05-04 04:28 | 55.19823 | -28.55929 | 39349 ft | 491 kts | 76° |
| 2026-05-04 04:28 | 55.21342 | -28.44288 | 39346 ft | 491 kts | 76° |
| 2026-05-04 04:29 | 55.22851 | -28.32629 | 39346 ft | 491 kts | 76° |
| 2026-05-04 04:29 | 55.24350 | -28.20957 | 39344 ft | 491 kts | 76° |
| 2026-05-04 04:30 | 55.25838 | -28.09277 | 39347 ft | 491 kts | 77° |
| 2026-05-04 04:30 | 55.27291 | -27.97772 | 39339 ft | 491 kts | 77° |
| 2026-05-04 04:31 | 55.28757 | -27.86071 | 39337 ft | 491 kts | 77° |
| 2026-05-04 04:31 | 55.30211 | -27.74365 | 39330 ft | 491 kts | 77° |
| 2026-05-04 04:32 | 55.31654 | -27.62644 | 39331 ft | 491 kts | 77° |
| 2026-05-04 04:32 | 55.33085 | -27.50926 | 39327 ft | 491 kts | 77° |
| 2026-05-04 04:33 | 55.34504 | -27.39206 | 39331 ft | 490 kts | 77° |
| 2026-05-04 04:33 | 55.35911 | -27.27491 | 39325 ft | 490 kts | 77° |
| 2026-05-04 04:34 | 55.37305 | -27.15770 | 39324 ft | 490 kts | 77° |
| 2026-05-04 04:34 | 55.38688 | -27.04050 | 39320 ft | 489 kts | 77° |
| 2026-05-04 04:35 | 55.40038 | -26.92509 | 39328 ft | 489 kts | 77° |
| 2026-05-04 04:35 | 55.41389 | -26.80851 | 39312 ft | 489 kts | 78° |
| 2026-05-04 04:36 | 55.42736 | -26.69121 | 39320 ft | 489 kts | 78° |
| 2026-05-04 04:36 | 55.44073 | -26.57375 | 39319 ft | 489 kts | 78° |
| 2026-05-04 04:37 | 55.46714 | -26.33853 | 39305 ft | 489 kts | 78° |
| 2026-05-04 04:38 | 55.48018 | -26.22077 | 39314 ft | 489 kts | 78° |
| 2026-05-04 04:38 | 55.49310 | -26.10303 | 39306 ft | 489 kts | 78° |
| 2026-05-04 04:39 | 55.50569 | -25.98719 | 39313 ft | 489 kts | 78° |
| 2026-05-04 04:39 | 55.51838 | -25.86928 | 39305 ft | 489 kts | 78° |
| 2026-05-04 04:40 | 55.53096 | -25.75133 | 39303 ft | 489 kts | 78° |
| 2026-05-04 04:40 | 55.54342 | -25.63335 | 39295 ft | 489 kts | 78° |
| 2026-05-04 04:41 | 55.55577 | -25.51528 | 39293 ft | 489 kts | 78° |
| 2026-05-04 04:41 | 55.56800 | -25.39712 | 39292 ft | 489 kts | 78° |
| 2026-05-04 04:42 | 55.58012 | -25.27886 | 39294 ft | 489 kts | 78° |
| 2026-05-04 04:42 | 55.59214 | -25.16049 | 39296 ft | 489 kts | 79° |
| 2026-05-04 04:43 | 55.60404 | -25.04201 | 39280 ft | 489 kts | 79° |
| 2026-05-04 04:43 | 55.61564 | -24.92537 | 39290 ft | 489 kts | 79° |
| 2026-05-04 04:44 | 55.62731 | -24.80679 | 39283 ft | 489 kts | 79° |
| 2026-05-04 04:44 | 55.63888 | -24.68808 | 39283 ft | 489 kts | 79° |
| 2026-05-04 04:45 | 55.65033 | -24.56928 | 39278 ft | 489 kts | 79° |
| 2026-05-04 04:47 | 55.68938 | -24.15429 | 39268 ft | 489 kts | 79° |
| 2026-05-04 04:47 | 55.70030 | -24.03533 | 39270 ft | 489 kts | 80° |
| 2026-05-04 04:48 | 55.71093 | -23.91829 | 39263 ft | 489 kts | 80° |
| 2026-05-04 04:49 | 55.73745 | -23.62043 | 39260 ft | 489 kts | 80° |
| 2026-05-04 04:49 | 55.74786 | -23.50109 | 39257 ft | 489 kts | 80° |
| 2026-05-04 04:50 | 55.75816 | -23.38170 | 39261 ft | 489 kts | 80° |
| 2026-05-04 04:50 | 55.76834 | -23.26222 | 39261 ft | 489 kts | 81° |
| 2026-05-04 04:51 | 55.77840 | -23.14271 | 39253 ft | 489 kts | 81° |
| 2026-05-04 04:51 | 55.78834 | -23.02322 | 39256 ft | 489 kts | 81° |
| 2026-05-04 04:52 | 55.79802 | -22.90555 | 39254 ft | 489 kts | 81° |
| 2026-05-04 04:52 | 55.80772 | -22.78594 | 39243 ft | 489 kts | 81° |
| 2026-05-04 04:53 | 55.81731 | -22.66636 | 39243 ft | 488 kts | 81° |
| 2026-05-04 04:53 | 55.82679 | -22.54679 | 39246 ft | 488 kts | 81° |
| 2026-05-04 04:54 | 55.83613 | -22.42724 | 39244 ft | 488 kts | 81° |
| 2026-05-04 04:54 | 55.84535 | -22.30764 | 39239 ft | 488 kts | 81° |
| 2026-05-04 04:55 | 55.85445 | -22.18814 | 39235 ft | 487 kts | 81° |
| 2026-05-04 04:55 | 55.86343 | -22.06865 | 39231 ft | 487 kts | 81° |
| 2026-05-04 04:56 | 55.87215 | -21.95111 | 39235 ft | 487 kts | 81° |
| 2026-05-04 04:56 | 55.88089 | -21.83166 | 39229 ft | 487 kts | 81° |
| 2026-05-04 04:57 | 55.88946 | -21.71285 | 39223 ft | 487 kts | 81° |
| 2026-05-04 04:57 | 55.89797 | -21.59324 | 39224 ft | 487 kts | 82° |
| 2026-05-04 04:58 | 55.90637 | -21.47357 | 39218 ft | 487 kts | 82° |
| 2026-05-04 04:58 | 55.91465 | -21.35384 | 39228 ft | 487 kts | 82° |
| 2026-05-04 04:59 | 55.92282 | -21.23400 | 39213 ft | 487 kts | 82° |
| 2026-05-04 04:59 | 55.93086 | -21.11418 | 39213 ft | 487 kts | 82° |
| 2026-05-04 05:00 | 55.93868 | -20.99613 | 39211 ft | 487 kts | 82° |
| 2026-05-04 05:01 | 55.95036 | -20.81635 | 39211 ft | 487 kts | 82° |
| 2026-05-04 05:01 | 55.95671 | -20.71671 | 39208 ft | 487 kts | 83° |
| 2026-05-04 05:02 | 55.96426 | -20.59659 | 39205 ft | 487 kts | 83° |
| 2026-05-04 05:02 | 55.97168 | -20.47656 | 39195 ft | 487 kts | 83° |
| 2026-05-04 05:03 | 55.97900 | -20.35644 | 39196 ft | 486 kts | 83° |
| 2026-05-04 05:04 | 55.99326 | -20.11646 | 39195 ft | 486 kts | 83° |
| 2026-05-04 05:04 | 56.00003 | -19.99785 | 39190 ft | 485 kts | 84° |
| 2026-05-04 05:06 | 56.00877 | -19.51698 | 39183 ft | 485 kts | 87° |
| 2026-05-04 05:07 | 56.01068 | -19.39647 | 39177 ft | 485 kts | 88° |
| 2026-05-04 05:07 | 56.01249 | -19.27595 | 39178 ft | 485 kts | 88° |
| 2026-05-04 05:09 | 56.01909 | -18.73537 | 39173 ft | 485 kts | 88° |
| 2026-05-04 05:10 | 56.02023 | -18.61471 | 39165 ft | 485 kts | 88° |
| 2026-05-04 05:10 | 56.02126 | -18.49414 | 39168 ft | 485 kts | 88° |
| 2026-05-04 05:11 | 56.02217 | -18.37353 | 39166 ft | 485 kts | 89° |
| 2026-05-04 05:11 | 56.02297 | -18.25287 | 39164 ft | 485 kts | 89° |
| 2026-05-04 05:12 | 56.02364 | -18.13318 | 39162 ft | 485 kts | 89° |
| 2026-05-04 05:12 | 56.02420 | -18.01270 | 39155 ft | 484 kts | 89° |
| 2026-05-04 05:13 | 56.02463 | -17.89430 | 39156 ft | 484 kts | 89° |
| 2026-05-04 05:13 | 56.02496 | -17.77401 | 39150 ft | 483 kts | 89° |
| 2026-05-04 05:14 | 56.02516 | -17.65394 | 39158 ft | 483 kts | 89° |
| 2026-05-04 05:14 | 56.02526 | -17.53383 | 39148 ft | 483 kts | 89° |
| 2026-05-04 05:15 | 56.02523 | -17.41392 | 39154 ft | 483 kts | 89° |
| 2026-05-04 05:15 | 56.02509 | -17.29392 | 39151 ft | 483 kts | 89° |
| 2026-05-04 05:16 | 56.02483 | -17.17387 | 39161 ft | 483 kts | 89° |
| 2026-05-04 05:16 | 56.02445 | -17.05380 | 39155 ft | 483 kts | 89° |
| 2026-05-04 05:17 | 56.02397 | -16.93574 | 39149 ft | 483 kts | 90° |
| 2026-05-04 05:17 | 56.02337 | -16.81565 | 39140 ft | 483 kts | 90° |
| 2026-05-04 05:18 | 56.02264 | -16.69555 | 39150 ft | 483 kts | 90° |
| 2026-05-04 05:18 | 56.02180 | -16.57537 | 39154 ft | 484 kts | 90° |
| 2026-05-04 05:19 | 56.02084 | -16.45513 | 39146 ft | 484 kts | 90° |
| 2026-05-04 05:19 | 56.01977 | -16.33468 | 39142 ft | 484 kts | 90° |
| 2026-05-04 05:20 | 56.01857 | -16.21449 | 39135 ft | 484 kts | 90° |
| 2026-05-04 05:20 | 56.01728 | -16.09509 | 39134 ft | 483 kts | 90° |
| 2026-05-04 05:21 | 56.01588 | -15.97685 | 39144 ft | 484 kts | 90° |
| 2026-05-04 05:21 | 56.01434 | -15.85673 | 39151 ft | 483 kts | 90° |
| 2026-05-04 05:22 | 56.01268 | -15.73665 | 39134 ft | 483 kts | 90° |
| 2026-05-04 05:22 | 56.01091 | -15.61658 | 39135 ft | 483 kts | 90° |
| 2026-05-04 05:23 | 56.00903 | -15.49655 | 39133 ft | 483 kts | 90° |
| 2026-05-04 05:23 | 56.00702 | -15.37657 | 39135 ft | 483 kts | 90° |
| 2026-05-04 05:24 | 56.00491 | -15.25653 | 39131 ft | 483 kts | 90° |
| 2026-05-04 05:24 | 56.00268 | -15.13655 | 39133 ft | 483 kts | 90° |
| 2026-05-04 05:25 | 56.00034 | -15.01655 | 39127 ft | 483 kts | 90° |
| 2026-05-04 05:25 | 55.99939 | -14.89853 | 39128 ft | 483 kts | 88° |
| 2026-05-04 05:26 | 56.00026 | -14.77865 | 39127 ft | 483 kts | 87° |
| 2026-05-04 05:26 | 56.00088 | -14.65858 | 39125 ft | 484 kts | 88° |
| 2026-05-04 05:28 | 56.00060 | -14.17846 | 39120 ft | 484 kts | 88° |
| 2026-05-04 05:29 | 55.99900 | -14.05837 | 39112 ft | 485 kts | 95° |
| 2026-05-04 05:29 | 55.98191 | -13.94375 | 39120 ft | 488 kts | 111° |
| 2026-05-04 05:31 | 55.84725 | -13.52309 | 39118 ft | 489 kts | 119° |
| 2026-05-04 05:32 | 55.81333 | -13.41813 | 39117 ft | 489 kts | 118° |
| 2026-05-04 05:33 | 55.76234 | -13.26111 | 39118 ft | 489 kts | 118° |
| 2026-05-04 05:33 | 55.72843 | -13.15739 | 39120 ft | 489 kts | 118° |
| 2026-05-04 05:34 | 55.69421 | -13.05318 | 39119 ft | 489 kts | 119° |
| 2026-05-04 05:34 | 55.66054 | -12.95109 | 39134 ft | 489 kts | 119° |
| 2026-05-04 05:35 | 55.62613 | -12.84719 | 39124 ft | 489 kts | 118° |
| 2026-05-04 05:35 | 55.59140 | -12.74280 | 39123 ft | 489 kts | 118° |
| 2026-05-04 05:36 | 55.55706 | -12.64001 | 39124 ft | 489 kts | 118° |
| 2026-05-04 05:36 | 55.52245 | -12.53682 | 39120 ft | 488 kts | 119° |
| 2026-05-04 05:37 | 55.48776 | -12.43387 | 39121 ft | 488 kts | 119° |
| 2026-05-04 05:37 | 55.45300 | -12.33115 | 39121 ft | 488 kts | 119° |
| 2026-05-04 05:38 | 55.40071 | -12.17742 | 39116 ft | 488 kts | 119° |
| 2026-05-04 05:38 | 55.36576 | -12.07520 | 39121 ft | 488 kts | 119° |
| 2026-05-04 05:39 | 55.31370 | -11.92374 | 39120 ft | 488 kts | 119° |
| 2026-05-04 05:40 | 55.26093 | -11.77115 | 39124 ft | 488 kts | 119° |
| 2026-05-04 05:40 | 55.22562 | -11.66960 | 39122 ft | 488 kts | 119° |
| 2026-05-04 05:41 | 55.19024 | -11.56829 | 39127 ft | 487 kts | 119° |
| 2026-05-04 05:41 | 55.15483 | -11.46727 | 39121 ft | 487 kts | 119° |
| 2026-05-04 05:42 | 55.11933 | -11.36643 | 39118 ft | 487 kts | 119° |
| 2026-05-04 05:42 | 55.08380 | -11.26593 | 39117 ft | 486 kts | 119° |
| 2026-05-04 05:43 | 55.04822 | -11.16567 | 39121 ft | 486 kts | 120° |
| 2026-05-04 05:45 | 54.90624 | -10.76971 | 39127 ft | 484 kts | 120° |
| 2026-05-04 05:47 | 54.76282 | -10.37608 | 39119 ft | 481 kts | 120° |
| 2026-05-04 05:47 | 54.72688 | -10.27840 | 39128 ft | 481 kts | 120° |
| 2026-05-04 05:48 | 54.69084 | -10.18087 | 39117 ft | 481 kts | 120° |
| 2026-05-04 05:48 | 54.65477 | -10.08362 | 39116 ft | 480 kts | 120° |
| 2026-05-04 05:49 | 54.61949 | -9.98886 | 39117 ft | 480 kts | 120° |
| 2026-05-04 05:49 | 54.58332 | -9.89212 | 39120 ft | 480 kts | 120° |
| 2026-05-04 05:51 | 54.44405 | -9.52302 | 39110 ft | 478 kts | 120° |
| 2026-05-04 05:52 | 54.40791 | -9.42815 | 39108 ft | 478 kts | 121° |
| 2026-05-04 05:52 | 54.37126 | -9.33229 | 39110 ft | 477 kts | 121° |
| 2026-05-04 05:54 | 54.22602 | -8.95600 | 39098 ft | 475 kts | 121° |
| 2026-05-04 05:55 | 54.18970 | -8.86278 | 39086 ft | 474 kts | 121° |
| 2026-05-04 05:55 | 54.15306 | -8.76911 | 39089 ft | 474 kts | 121° |
| 2026-05-04 05:56 | 54.11637 | -8.67565 | 39081 ft | 474 kts | 121° |
| 2026-05-04 05:56 | 54.07965 | -8.58244 | 39088 ft | 474 kts | 121° |
| 2026-05-04 05:57 | 54.04285 | -8.48940 | 39086 ft | 474 kts | 122° |
| 2026-05-04 05:57 | 54.00597 | -8.39651 | 39084 ft | 474 kts | 122° |
| 2026-05-04 05:58 | 53.96905 | -8.30384 | 39077 ft | 474 kts | 122° |
| 2026-05-04 05:58 | 53.93199 | -8.21117 | 39076 ft | 475 kts | 122° |
| 2026-05-04 05:59 | 53.89482 | -8.11857 | 39080 ft | 475 kts | 122° |
| 2026-05-04 05:59 | 53.85751 | -8.02597 | 39072 ft | 476 kts | 122° |
| 2026-05-04 06:00 | 53.82079 | -7.93517 | 39076 ft | 476 kts | 122° |
| 2026-05-04 06:00 | 53.78332 | -7.84283 | 39082 ft | 476 kts | 122° |
| 2026-05-04 06:01 | 53.74576 | -7.75063 | 39074 ft | 476 kts | 122° |
| 2026-05-04 06:03 | 53.59542 | -7.38296 | 39068 ft | 474 kts | 119° |
| 2026-05-04 06:05 | 53.45848 | -6.94506 | 39059 ft | 473 kts | 116° |
| 2026-05-04 06:06 | 53.42765 | -6.84763 | 39055 ft | 473 kts | 116° |
| 2026-05-04 06:06 | 53.39677 | -6.75038 | 39057 ft | 473 kts | 116° |
| 2026-05-04 06:07 | 53.36579 | -6.65317 | 39052 ft | 473 kts | 117° |
| 2026-05-04 06:07 | 53.33474 | -6.55607 | 39051 ft | 473 kts | 117° |
| 2026-05-04 06:08 | 53.31113 | -6.45482 | 39053 ft | 467 kts | 95° |
| 2026-05-04 06:08 | 53.31045 | -6.40083 | 39059 ft | 465 kts | 82° |
| 2026-05-04 06:08 | 53.31729 | -6.34835 | 39046 ft | 460 kts | 70° |
| 2026-05-04 06:09 | 53.33790 | -6.24673 | 39052 ft | 463 kts | 70° |
| 2026-05-04 06:11 | 53.41749 | -5.83449 | 39046 ft | 470 kts | 71° |
| 2026-05-04 06:13 | 53.47845 | -5.41193 | 39024 ft | 468 kts | 90° |
| 2026-05-04 06:14 | 53.46676 | -5.02984 | 39037 ft | 469 kts | 91° |
| 2026-05-04 06:15 | 53.46316 | -4.92213 | 39035 ft | 470 kts | 92° |
| 2026-05-04 06:15 | 53.45943 | -4.81256 | 39034 ft | 471 kts | 92° |
| 2026-05-04 06:16 | 53.45549 | -4.70288 | 39031 ft | 471 kts | 92° |
| 2026-05-04 06:16 | 53.45159 | -4.59446 | 39019 ft | 472 kts | 92° |
| 2026-05-04 06:17 | 53.44804 | -4.48447 | 39032 ft | 472 kts | 92° |
| 2026-05-04 06:17 | 53.44443 | -4.37437 | 39022 ft | 473 kts | 92° |
| 2026-05-04 06:18 | 53.44041 | -4.26426 | 39031 ft | 473 kts | 93° |
| 2026-05-04 06:20 | 53.42198 | -3.82176 | 40107 ft | 481 kts | 93° |
| 2026-05-04 06:20 | 53.41968 | -3.76581 | 40351 ft | 482 kts | 93° |
| 2026-05-04 06:21 | 53.41011 | -3.54082 | 40963 ft | 488 kts | 94° |
| 2026-05-04 06:22 | 53.40519 | -3.42737 | 41012 ft | 487 kts | 94° |
| 2026-05-04 06:25 | 53.37324 | -2.64721 | 41025 ft | 484 kts | 94° |
| 2026-05-04 06:26 | 53.36861 | -2.53456 | 41021 ft | 485 kts | 94° |
| 2026-05-04 06:26 | 53.36388 | -2.42179 | 41023 ft | 486 kts | 94° |
| 2026-05-04 06:27 | 53.34536 | -2.14148 | 41044 ft | 487 kts | 100° |
| 2026-05-04 06:28 | 53.33328 | -2.03007 | 41043 ft | 486 kts | 100° |
| 2026-05-04 06:28 | 53.32169 | -1.92087 | 41038 ft | 486 kts | 100° |
| 2026-05-04 06:29 | 53.30998 | -1.80949 | 41026 ft | 486 kts | 100° |
| 2026-05-04 06:29 | 53.29820 | -1.69826 | 41026 ft | 486 kts | 100° |
| 2026-05-04 06:30 | 53.28629 | -1.58717 | 41030 ft | 485 kts | 100° |
| 2026-05-04 06:30 | 53.27430 | -1.47621 | 41024 ft | 485 kts | 101° |
| 2026-05-04 06:31 | 53.26223 | -1.36534 | 41026 ft | 485 kts | 101° |
| 2026-05-04 06:31 | 53.25007 | -1.25452 | 41026 ft | 485 kts | 101° |
| 2026-05-04 06:33 | 53.20055 | -0.81319 | 41017 ft | 487 kts | 101° |
| 2026-05-04 06:34 | 53.18784 | -0.70229 | 41023 ft | 487 kts | 102° |
| 2026-05-04 06:34 | 53.17510 | -0.59198 | 41023 ft | 488 kts | 102° |
| 2026-05-04 06:36 | 53.12504 | -0.16717 | 41026 ft | 488 kts | 102° |
| 2026-05-04 06:37 | 53.11174 | -0.05651 | 41017 ft | 487 kts | 102° |
| 2026-05-04 06:37 | 53.09859 | 0.05195 | 40987 ft | 487 kts | 102° |
| 2026-05-04 06:38 | 53.08508 | 0.16250 | 40994 ft | 488 kts | 102° |
| 2026-05-04 06:40 | 53.02998 | 0.60425 | 40990 ft | 489 kts | 103° |
| 2026-05-04 06:40 | 53.01589 | 0.71492 | 40998 ft | 490 kts | 103° |
| 2026-05-04 06:41 | 53.00877 | 0.77056 | 40526 ft | 497 kts | 103° |
| 2026-05-04 06:41 | 53.00157 | 0.82665 | 39895 ft | 496 kts | 103° |
| 2026-05-04 06:41 | 52.99439 | 0.88231 | 39243 ft | 494 kts | 103° |
| 2026-05-04 06:41 | 52.98720 | 0.93798 | 38555 ft | 493 kts | 103° |
| 2026-05-04 06:42 | 52.98002 | 0.99324 | 37989 ft | 486 kts | 103° |
| 2026-05-04 06:42 | 52.97341 | 1.04583 | 37494 ft | 479 kts | 103° |
| 2026-05-04 06:42 | 52.96709 | 1.09972 | 37053 ft | 472 kts | 102° |
| 2026-05-04 06:44 | 52.92556 | 1.45889 | 34036 ft | 437 kts | 103° |
| 2026-05-04 06:44 | 52.91970 | 1.50809 | 33550 ft | 433 kts | 103° |
| 2026-05-04 06:44 | 52.91389 | 1.55681 | 33080 ft | 429 kts | 103° |
| 2026-05-04 06:45 | 52.90812 | 1.60497 | 32683 ft | 423 kts | 104° |
| 2026-05-04 06:45 | 52.90241 | 1.65243 | 32204 ft | 419 kts | 104° |
| 2026-05-04 06:45 | 52.89678 | 1.69913 | 31459 ft | 406 kts | 104° |
| 2026-05-04 06:45 | 52.89124 | 1.74487 | 31046 ft | 406 kts | 104° |
| 2026-05-04 06:46 | 52.88562 | 1.79098 | 30636 ft | 413 kts | 105° |
| 2026-05-04 06:46 | 52.87981 | 1.83823 | 30227 ft | 423 kts | 105° |
| 2026-05-04 06:46 | 52.87394 | 1.88601 | 29752 ft | 423 kts | 105° |
| 2026-05-04 06:46 | 52.86812 | 1.93354 | 29248 ft | 419 kts | 105° |
| 2026-05-04 06:48 | 52.82867 | 2.25068 | 26291 ft | 395 kts | 105° |
| 2026-05-04 06:48 | 52.82309 | 2.29493 | 25890 ft | 392 kts | 105° |
| 2026-05-04 06:49 | 52.81752 | 2.33894 | 25493 ft | 390 kts | 105° |
| 2026-05-04 06:50 | 52.77884 | 2.64038 | 22680 ft | 376 kts | 105° |
| 2026-05-04 06:51 | 52.77337 | 2.68243 | 22299 ft | 373 kts | 105° |
| 2026-05-04 06:51 | 52.76794 | 2.72416 | 21912 ft | 370 kts | 105° |
| 2026-05-04 06:51 | 52.76253 | 2.76551 | 21537 ft | 367 kts | 105° |
| 2026-05-04 06:51 | 52.75714 | 2.80656 | 21163 ft | 364 kts | 104° |
| 2026-05-04 06:52 | 52.75187 | 2.84730 | 20790 ft | 362 kts | 104° |
| 2026-05-04 06:52 | 52.74668 | 2.88781 | 20403 ft | 360 kts | 104° |
| 2026-05-04 06:52 | 52.74149 | 2.92809 | 20030 ft | 358 kts | 104° |
| 2026-05-04 06:52 | 52.73626 | 2.96838 | 19595 ft | 360 kts | 104° |
| 2026-05-04 06:53 | 52.72970 | 3.00667 | 19163 ft | 358 kts | 117° |
| 2026-05-04 06:53 | 52.71800 | 3.04230 | 18972 ft | 349 kts | 124° |
| 2026-05-04 06:53 | 52.70548 | 3.07649 | 18937 ft | 349 kts | 124° |
| 2026-05-04 06:53 | 52.69280 | 3.11095 | 18705 ft | 355 kts | 124° |
| 2026-05-04 06:54 | 52.68005 | 3.14609 | 18290 ft | 357 kts | 123° |
| 2026-05-04 06:54 | 52.66765 | 3.18076 | 17850 ft | 355 kts | 123° |
| 2026-05-04 06:54 | 52.65523 | 3.21580 | 17430 ft | 353 kts | 123° |
| 2026-05-04 06:54 | 52.64297 | 3.25056 | 17009 ft | 350 kts | 123° |
| 2026-05-04 06:55 | 52.63081 | 3.28503 | 16618 ft | 347 kts | 123° |
| 2026-05-04 06:55 | 52.61860 | 3.31963 | 16215 ft | 344 kts | 123° |
| 2026-05-04 06:55 | 52.60679 | 3.35304 | 15834 ft | 341 kts | 123° |
| 2026-05-04 06:55 | 52.59488 | 3.38664 | 15442 ft | 339 kts | 123° |
| 2026-05-04 06:56 | 52.58415 | 3.42070 | 15038 ft | 333 kts | 111° |
| 2026-05-04 06:57 | 52.55730 | 3.67495 | 12434 ft | 315 kts | 102° |
| 2026-05-04 06:58 | 52.55351 | 3.71029 | 12079 ft | 313 kts | 102° |
| 2026-05-04 06:58 | 52.54973 | 3.74537 | 11722 ft | 311 kts | 102° |
| 2026-05-04 06:58 | 52.54596 | 3.78020 | 11376 ft | 309 kts | 102° |
| 2026-05-04 06:58 | 52.54220 | 3.81487 | 11024 ft | 307 kts | 102° |
| 2026-05-04 06:59 | 52.53846 | 3.84926 | 10677 ft | 305 kts | 102° |
| 2026-05-04 06:59 | 52.53472 | 3.88350 | 10336 ft | 304 kts | 102° |
| 2026-05-04 06:59 | 52.53102 | 3.91726 | 10166 ft | 296 kts | 102° |
| 2026-05-04 06:59 | 52.52743 | 3.94998 | 10025 ft | 287 kts | 102° |
| 2026-05-04 07:01 | 52.47829 | 4.16181 | 9201 ft | 285 kts | 114° |
| 2026-05-04 07:01 | 52.47084 | 4.19183 | 9070 ft | 283 kts | 114° |
| 2026-05-04 07:02 | 52.46346 | 4.22168 | 8945 ft | 282 kts | 114° |
| 2026-05-04 07:02 | 52.45611 | 4.25143 | 8842 ft | 281 kts | 114° |
| 2026-05-04 07:02 | 52.44883 | 4.28091 | 8731 ft | 281 kts | 114° |
| 2026-05-04 07:02 | 52.44151 | 4.31056 | 8612 ft | 280 kts | 113° |
| 2026-05-04 07:03 | 52.43419 | 4.33997 | 8503 ft | 276 kts | 116° |
| 2026-05-04 07:03 | 52.42347 | 4.36557 | 8392 ft | 275 kts | 135° |
| 2026-05-04 07:03 | 52.41010 | 4.38767 | 8280 ft | 278 kts | 137° |
| 2026-05-04 07:03 | 52.39653 | 4.40980 | 8176 ft | 274 kts | 137° |
| 2026-05-04 07:04 | 52.38315 | 4.43154 | 8069 ft | 263 kts | 136° |
| 2026-05-04 07:04 | 52.37362 | 4.45599 | 7953 ft | 254 kts | 107° |
| 2026-05-04 07:04 | 52.36990 | 4.48387 | 7893 ft | 252 kts | 102° |
| 2026-05-04 07:04 | 52.36629 | 4.51183 | 7808 ft | 256 kts | 103° |
| 2026-05-04 07:05 | 52.36241 | 4.54043 | 7701 ft | 257 kts | 103° |
| 2026-05-04 07:05 | 52.35843 | 4.56901 | 7579 ft | 257 kts | 104° |
| 2026-05-04 07:05 | 52.35440 | 4.59738 | 7480 ft | 257 kts | 104° |
| 2026-05-04 07:05 | 52.35031 | 4.62583 | 7382 ft | 256 kts | 104° |
| 2026-05-04 07:06 | 52.34234 | 4.68040 | 7180 ft | 255 kts | 104° |
| 2026-05-04 07:06 | 52.33820 | 4.70856 | 7109 ft | 254 kts | 104° |
| 2026-05-04 07:06 | 52.33519 | 4.73661 | 6979 ft | 249 kts | 88° |
| 2026-05-04 07:07 | 52.34004 | 4.76333 | 6790 ft | 246 kts | 57° |
| 2026-05-04 07:08 | 52.41451 | 4.88222 | 5321 ft | 196 kts | 1° |
| 2026-05-04 07:09 | 52.42783 | 4.88330 | 5205 ft | 188 kts | 1° |
| 2026-05-04 07:09 | 52.44076 | 4.88470 | 4979 ft | 183 kts | 2° |
| 2026-05-04 07:09 | 52.45354 | 4.88603 | 4816 ft | 186 kts | 1° |
| 2026-05-04 07:09 | 52.46641 | 4.88732 | 4631 ft | 184 kts | 1° |
| 2026-05-04 07:10 | 52.47899 | 4.88858 | 4441 ft | 178 kts | 1° |
| 2026-05-04 07:10 | 52.49120 | 4.88969 | 4289 ft | 173 kts | 356° |
| 2026-05-04 07:12 | 52.49909 | 4.77996 | 3267 ft | 166 kts | 232° |
| 2026-05-04 07:12 | 52.49167 | 4.76524 | 3107 ft | 166 kts | 221° |
| 2026-05-04 07:12 | 52.48115 | 4.75852 | 2963 ft | 167 kts | 189° |
| 2026-05-04 07:12 | 52.46959 | 4.75552 | 2742 ft | 168 kts | 192° |
| 2026-05-04 07:13 | 52.45820 | 4.75256 | 2511 ft | 165 kts | 188° |
| 2026-05-04 07:13 | 52.44694 | 4.75084 | 2295 ft | 165 kts | 185° |
| 2026-05-04 07:13 | 52.43528 | 4.74962 | 2077 ft | 166 kts | 184° |
| 2026-05-04 07:14 | 52.39243 | 4.74565 | 1227 ft | 151 kts | 183° |
| 2026-05-04 07:14 | 52.38225 | 4.74472 | 1034 ft | 140 kts | 183° |
| 2026-05-04 07:15 | 52.37279 | 4.74384 | 841 ft | 134 kts | 183° |
| 2026-05-04 07:15 | 52.36349 | 4.74299 | 667 ft | 135 kts | 183° |
| 2026-05-04 07:15 | 52.35411 | 4.74212 | 479 ft | 135 kts | 183° |
| 2026-05-04 07:15 | 52.34483 | 4.74127 | 306 ft | 134 kts | 183° |
| 2026-05-04 07:16 | 52.33548 | 4.74041 | 138 ft | 133 kts | 182° |
| 2026-05-04 07:16 | 52.32696 | 4.73970 | 12 ft | 109 kts | 183° |
| 2026-05-04 07:16 | 52.32062 | 4.73907 | 3 ft | 71 kts | 183° |
| 2026-05-04 07:16 | 52.31654 | 4.73872 | 2 ft | 53 kts | 183° |
| 2026-05-04 07:17 | 52.31336 | 4.73844 | 2 ft | 29 kts | 179° |
| 2026-05-04 07:17 | 52.31155 | 4.73943 | 3 ft | 24 kts | 154° |
| 2026-05-04 07:17 | 52.31038 | 4.74037 | 3 ft | 16 kts | 154° |
| 2026-05-04 07:17 | 52.30961 | 4.74088 | 3 ft | 12 kts | 168° |
| 2026-05-04 07:18 | 52.30910 | 4.74176 | 3 ft | 12 kts | 92° |
| 2026-05-04 07:18 | 52.30968 | 4.74243 | 3 ft | 12 kts | 5° |
| 2026-05-04 07:18 | 52.31052 | 4.74251 | 3 ft | 14 kts | 3° |
| 2026-05-04 07:18 | 52.31184 | 4.74264 | 3 ft | 24 kts | 3° |
| 2026-05-04 07:19 | 52.31347 | 4.74279 | 4 ft | 13 kts | 2° |
| 2026-05-04 07:19 | 52.31397 | 4.74321 | 4 ft | 9 kts | 85° |
| 2026-05-04 07:19 | 52.31394 | 4.74433 | 4 ft | 13 kts | 89° |
| 2026-05-04 07:19 | 52.31398 | 4.74585 | 4 ft | 13 kts | 87° |
| 2026-05-04 07:20 | 52.31403 | 4.74735 | 4 ft | 13 kts | 87° |
| 2026-05-04 07:20 | 52.31408 | 4.74886 | 4 ft | 13 kts | 87° |
| 2026-05-04 07:20 | 52.31414 | 4.75096 | 3 ft | 26 kts | 87° |
| 2026-05-04 07:20 | 52.31423 | 4.75386 | 3 ft | 26 kts | 87° |
| 2026-05-04 07:22 | 52.31332 | 4.75931 | 3 ft | 13 kts | 176° |
| 2026-05-04 07:22 | 52.31248 | 4.75939 | 3 ft | 8 kts | 177° |
| 2026-05-04 07:23 | 52.31208 | 4.75952 | 3 ft | 6 kts | 145° |
| 2026-05-04 07:23 | 52.31200 | 4.76015 | 3 ft | 5 kts | 94° |
| 2026-05-04 07:23 | 52.31200 | 4.76068 | 3 ft | 3 kts | 88° |
| 2026-05-04 07:23 | 52.31201 | 4.76091 | 3 ft | 0 kts | 88° |